M I D A S
Marine Information and Data Acquisition System
Tripno 1083 of the Zeeleeuw from 2006-05-15 11:44:25 to 2006-05-15 13:55:33
Back to CruiseResearch ActivitiesStationsMapUnderway DataData graphs

EquipmentUnitsComment
TimeDGPSUTC
LatitudeDGPSDM.mWGS84
LongitudeDGPSDM.mWGS84
TemperatureSBE03/SBE38deg celciusITS90
ConductivitySBE21S/mITS90
SalinitySBE21 Practical Salinity Units
ChlorophylAChelsea fluorimeterg/lCalibrated in Aceton
Missing or incorrect values are displayed as -999
Sea surface data collected by the RV Zeeleeuw from 2006-05-15 07:32:01 to 2006-05-15 14:08:45
                                                                                    Next 1000 lines
Time Latitude Longitude Temperature Conductivity Salinity ChlorophylA
2006-05-15 07:32:11 51°13.598 2°56.098 20.0471 0.004359 0.027285 11.320426
2006-05-15 07:32:15 51°13.599 2°56.099 20.0705 0.004359 0.027285 11.320426
2006-05-15 07:32:21 51°13.599 2°56.099 20.1096 0.004359 0.027285 11.286717
2006-05-15 07:32:25 51°13.599 2°56.099 20.114 0.004359 0.027285 11.320426
2006-05-15 07:32:31 51°13.6 2°56.099 20.1049 0.004359 0.027285 11.320426
2006-05-15 07:32:36 51°13.6 2°56.099 20.1025 0.004359 0.027285 11.286717
2006-05-15 07:32:41 51°13.6 2°56.099 20.1024 0.004359 0.027285 11.286717
2006-05-15 07:32:45 51°13.6 2°56.099 20.1039 0.004359 0.027285 11.320426
2006-05-15 07:32:51 51°13.599 2°56.098 20.1358 0.004359 0.027285 11.320426
2006-05-15 07:32:56 51°13.599 2°56.098 20.1548 0.004359 0.027285 11.320426
2006-05-15 07:33:01 51°13.599 2°56.098 20.1559 0.004359 0.027285 11.320426
2006-05-15 07:33:05 51°13.6 2°56.099 20.1524 0.004359 0.027285 11.320426
2006-05-15 07:33:11 51°13.6 2°56.099 20.1473 0.004359 0.027286 11.286717
2006-05-15 07:33:15 51°13.6 2°56.099 20.1453 0.004255 0.026845 11.320426
2006-05-15 07:33:21 51°13.6 2°56.099 20.1437 0.004359 0.027286 11.286717
2006-05-15 07:33:25 51°13.6 2°56.099 20.144 0.004359 0.027286 11.354136
2006-05-15 07:33:31 51°13.6 2°56.099 20.1474 0.004359 0.027286 11.354136
2006-05-15 07:33:35 51°13.6 2°56.099 20.1543 0.004359 0.027286 11.320426
2006-05-15 07:33:41 51°13.6 2°56.099 20.1532 0.004359 0.027286 11.320426
2006-05-15 07:33:45 51°13.599 2°56.099 20.1518 0.004359 0.027286 11.320426
2006-05-15 07:33:51 51°13.599 2°56.099 20.1505 0.004359 0.027286 11.320426
2006-05-15 07:33:55 51°13.599 2°56.099 20.1514 0.004359 0.027286 11.320426
2006-05-15 07:34:01 51°13.6 2°56.099 20.1537 0.004359 0.027286 11.320426
2006-05-15 07:34:05 51°13.6 2°56.099 20.1523 0.004359 0.027286 11.354136
2006-05-15 07:34:11 51°13.6 2°56.099 20.152 0.004359 0.027286 11.320426
2006-05-15 07:34:15 51°13.6 2°56.099 20.1452 0.004359 0.027286 11.320426
2006-05-15 07:34:20 51°13.6 2°56.098 20.1345 0.004359 0.027286 11.320426
2006-05-15 07:34:25 51°13.6 2°56.098 20.1254 0.004255 0.026845 11.320426
2006-05-15 07:34:31 51°13.6 2°56.098 20.1247 0.004359 0.027286 11.320426
2006-05-15 07:34:35 51°13.6 2°56.099 20.1237 0.004359 0.027286 11.320426
2006-05-15 07:34:41 51°13.6 2°56.099 20.1224 0.004359 0.027286 11.354136
2006-05-15 07:34:45 51°13.6 2°56.099 20.1196 0.004359 0.027286 11.286717
2006-05-15 07:34:51 51°13.6 2°56.099 20.1092 0.004359 0.027286 11.320426
2006-05-15 07:34:55 51°13.599 2°56.098 20.1059 0.004359 0.027286 11.320426
2006-05-15 07:35:01 51°13.599 2°56.098 20.1058 0.004359 0.027286 11.320426
2006-05-15 07:35:05 51°13.599 2°56.098 20.1053 0.004359 0.027286 11.320426
2006-05-15 07:35:11 51°13.599 2°56.098 20.1053 0.004359 0.027286 11.354136
2006-05-15 07:35:16 51°13.599 2°56.098 20.1057 0.004359 0.027286 11.354136
2006-05-15 07:35:21 51°13.599 2°56.098 20.104 0.004359 0.027287 11.286717
2006-05-15 07:35:25 51°13.599 2°56.098 20.1043 0.004359 0.027287 11.320426
2006-05-15 07:35:31 51°13.598 2°56.098 20.1032 0.004359 0.027287 11.320426
2006-05-15 07:35:35 51°13.598 2°56.098 20.0981 0.004359 0.027287 11.286717
2006-05-15 07:35:41 51°13.598 2°56.098 20.0899 0.004359 0.027287 11.286717
2006-05-15 07:35:45 51°13.599 2°56.098 20.0438 0.004359 0.027287 11.320426
2006-05-15 07:35:51 51°13.599 2°56.098 19.9781 0.004359 0.027287 11.354136
2006-05-15 07:35:55 51°13.599 2°56.097 19.9232 0.004359 0.027287 11.320426
2006-05-15 07:36:01 51°13.599 2°56.096 19.9461 0.004359 0.027287 11.320426
2006-05-15 07:36:05 51°13.599 2°56.095 19.8613 0.004359 0.027287 11.286717
2006-05-15 07:36:11 51°13.6 2°56.091 19.9573 0.004359 0.027287 11.320426
2006-05-15 07:36:15 51°13.6 2°56.088 19.9837 0.004359 0.027287 11.320426
2006-05-15 07:36:20 51°13.601 2°56.083 20.0048 0.004359 0.027287 11.286717
2006-05-15 07:36:26 51°13.602 2°56.075 19.918 0.004359 0.027287 11.320426
2006-05-15 07:36:31 51°13.603 2°56.068 20.0338 0.004359 0.027287 11.354136
2006-05-15 07:36:35 51°13.604 2°56.062 20.0291 0.004359 0.027287 11.354136
2006-05-15 07:36:41 51°13.606 2°56.051 20.0428 0.004359 0.027287 11.320426
2006-05-15 07:36:45 51°13.607 2°56.044 20.0578 0.004359 0.027287 11.286717
2006-05-15 07:36:51 51°13.609 2°56.032 20.0793 0.004359 0.027287 11.320426
2006-05-15 07:36:55 51°13.61 2°56.024 20.0385 0.004359 0.027287 11.320426
2006-05-15 07:37:01 51°13.611 2°56.013 20.042 0.004359 0.027287 11.320426
2006-05-15 07:37:05 51°13.613 2°56.005 19.9864 0.004359 0.027287 11.320426
2006-05-15 07:37:11 51°13.614 2°55.994 20.0611 0.004359 0.027287 11.320426
2006-05-15 07:37:15 51°13.615 2°55.986 20.0746 0.004359 0.027287 11.320426
2006-05-15 07:37:21 51°13.617 2°55.975 20.0709 0.004255 0.026846 11.320426
2006-05-15 07:37:25 51°13.619 2°55.968 20.0705 0.004359 0.027287 11.320426
2006-05-15 07:37:31 51°13.62 2°55.957 20.0901 0.004359 0.027287 11.320426
2006-05-15 07:37:35 51°13.622 2°55.95 20.0645 0.004359 0.027287 11.320426
2006-05-15 07:37:41 51°13.624 2°55.941 20.0757 0.004359 0.027287 11.320426
2006-05-15 07:37:45 51°13.626 2°55.934 20.048 0.004359 0.027288 11.320426
2006-05-15 07:37:51 51°13.628 2°55.925 20.0709 0.004359 0.027288 11.320426
2006-05-15 07:37:55 51°13.63 2°55.919 20.0486 0.004359 0.027288 11.320426
2006-05-15 07:38:01 51°13.633 2°55.91 20.0492 0.004359 0.027288 11.320426
2006-05-15 07:38:05 51°13.635 2°55.905 20.0497 0.004359 0.027288 11.320426
2006-05-15 07:38:11 51°13.638 2°55.896 20.0535 0.004359 0.027288 11.286717
2006-05-15 07:38:15 51°13.64 2°55.89 20.0554 0.004255 0.026847 11.320426
2006-05-15 07:38:20 51°13.643 2°55.883 20.0573 0.004359 0.027288 11.320426
2006-05-15 07:38:25 51°13.646 2°55.876 20.0534 0.004359 0.027288 11.286717
2006-05-15 07:38:31 51°13.65 2°55.869 20.0544 0.004359 0.027288 11.354136
2006-05-15 07:38:35 51°13.653 2°55.863 20.0496 0.004359 0.027288 11.354136
2006-05-15 07:38:41 51°13.657 2°55.856 20.0407 0.004359 0.027288 11.286717
2006-05-15 07:38:45 51°13.66 2°55.85 20.0454 0.004359 0.027288 11.320426
2006-05-15 07:38:51 51°13.664 2°55.843 20.0499 0.004359 0.027288 11.320426
2006-05-15 07:38:55 51°13.667 2°55.837 20.0524 0.004359 0.027288 11.354136
2006-05-15 07:39:01 51°13.672 2°55.829 20.0522 0.004359 0.027288 11.354136
2006-05-15 07:39:05 51°13.676 2°55.824 20.0518 0.004359 0.027288 11.320426
2006-05-15 07:39:11 51°13.681 2°55.816 20.0516 0.004359 0.027288 11.320426
2006-05-15 07:39:15 51°13.685 2°55.811 20.1033 0.004255 0.026847 11.320426
2006-05-15 07:39:21 51°13.691 2°55.803 20.0862 0.004255 0.026847 11.320426
2006-05-15 07:39:25 51°13.695 2°55.798 19.9764 0.004255 0.026847 11.320426
2006-05-15 07:39:31 51°13.701 2°55.791 20.0197 0.004255 0.026847 11.320426
2006-05-15 07:39:35 51°13.705 2°55.786 20.0359 0.004359 0.027288 11.320426
2006-05-15 07:39:40 51°13.71 2°55.78 20.0382 0.004255 0.026847 11.320426
2006-05-15 07:39:45 51°13.715 2°55.773 20.04 0.004359 0.027288 11.354136
2006-05-15 07:39:50 51°13.719 2°55.767 20.0534 0.004359 0.027288 11.286717
2006-05-15 07:39:55 51°13.724 2°55.76 20.0736 0.004359 0.027288 11.320426
2006-05-15 07:40:01 51°13.729 2°55.753 20.0546 0.004359 0.027288 11.320426
2006-05-15 07:40:05 51°13.732 2°55.748 20.0528 0.004359 0.027288 11.320426
2006-05-15 07:40:11 51°13.737 2°55.74 20.0539 0.004359 0.027289 11.320426
2006-05-15 07:40:15 51°13.74 2°55.736 20.0238 0.004359 0.027289 11.320426
2006-05-15 07:40:19 51°13.742 2°55.731 20.0349 0.004359 0.027289 11.320426
2006-05-15 07:40:25 51°13.745 2°55.726 20.036 0.004359 0.027289 11.286717
2006-05-15 07:40:31 51°13.747 2°55.721 20.0431 0.004255 0.026848 11.320426
2006-05-15 07:40:34 51°13.748 2°55.719 20.0911 0.004255 0.026848 11.320426
2006-05-15 07:40:40 51°13.749 2°55.716 20.0828 0.004359 0.027289 11.286717
2006-05-15 07:40:45 51°13.75 2°55.716 20.0998 0.004359 0.027289 11.354136
2006-05-15 07:40:50 51°13.751 2°55.716 20.0745 0.004359 0.027289 11.286717
2006-05-15 07:40:54 51°13.751 2°55.717 20.0581 0.004359 0.027289 11.286717
2006-05-15 07:40:59 51°13.751 2°55.719 19.9295 0.004359 0.027289 11.286717
2006-05-15 07:41:05 51°13.751 2°55.723 19.7062 0.004359 0.027289 11.286717
2006-05-15 07:41:09 51°13.752 2°55.725 19.6739 0.004359 0.027289 11.320426
2006-05-15 07:41:15 51°13.752 2°55.727 19.5678 0.004255 0.026848 11.286717
2006-05-15 07:41:20 51°13.752 2°55.727 19.5366 0.004359 0.027289 11.320426
2006-05-15 07:41:24 51°13.753 2°55.726 19.6955 0.004255 0.026848 11.286717
2006-05-15 07:41:30 51°13.752 2°55.724 19.7701 0.004359 0.027289 11.286717
2006-05-15 07:41:35 51°13.752 2°55.72 19.7858 0.004359 0.027289 11.286717
2006-05-15 07:41:40 51°13.75 2°55.715 19.7912 0.004359 0.027289 11.286717
2006-05-15 07:41:45 51°13.749 2°55.71 19.8269 0.004255 0.026848 11.320426
2006-05-15 07:41:51 51°13.747 2°55.704 19.8067 0.004359 0.027289 11.286717
2006-05-15 07:41:55 51°13.746 2°55.7 19.7917 0.004359 0.027289 11.320426
2006-05-15 07:42:01 51°13.745 2°55.695 19.7794 0.004359 0.027289 11.320426
2006-05-15 07:42:05 51°13.744 2°55.692 19.7693 0.004359 0.027289 11.320426
2006-05-15 07:42:11 51°13.742 2°55.688 19.77 0.004359 0.027289 11.320426
2006-05-15 07:42:15 51°13.741 2°55.685 19.7726 0.004255 0.026848 11.286717
2006-05-15 07:42:21 51°13.74 2°55.681 19.7963 0.004255 0.026848 11.320426
2006-05-15 07:42:25 51°13.74 2°55.678 19.8178 0.004359 0.027289 11.286717
2006-05-15 07:42:31 51°13.74 2°55.676 19.8708 0.004359 0.027289 11.286717
2006-05-15 07:42:35 51°13.74 2°55.676 19.9225 0.004359 0.027289 11.320426
2006-05-15 07:42:41 51°13.741 2°55.677 19.9368 0.004359 0.027289 11.320426
2006-05-15 07:42:45 51°13.743 2°55.678 19.8713 0.004359 0.027289 11.286717
2006-05-15 07:42:50 51°13.746 2°55.68 19.8137 0.004255 0.026848 11.320426
2006-05-15 07:42:55 51°13.749 2°55.682 19.6637 0.004359 0.027289 11.320426
2006-05-15 07:43:00 51°13.752 2°55.683 19.578 0.004359 0.027289 11.320426
2006-05-15 07:43:05 51°13.755 2°55.684 19.5766 0.004359 0.02729 11.286717
2006-05-15 07:43:10 51°13.758 2°55.684 19.5511 0.004359 0.02729 11.320426
2006-05-15 07:43:15 51°13.761 2°55.684 19.5541 0.004255 0.026848 11.286717
2006-05-15 07:43:20 51°13.764 2°55.684 19.563 0.004255 0.026849 11.286717
2006-05-15 07:43:25 51°13.768 2°55.683 19.5678 0.004255 0.026849 11.320426
2006-05-15 07:43:30 51°13.771 2°55.682 19.5664 0.004359 0.02729 11.286717
2006-05-15 07:43:34 51°13.774 2°55.681 19.5773 0.004359 0.02729 11.286717
2006-05-15 07:43:39 51°13.777 2°55.68 19.6127 0.004255 0.026849 11.320426
2006-05-15 07:43:45 51°13.782 2°55.677 19.6125 0.004359 0.02729 11.286717
2006-05-15 07:43:50 51°13.786 2°55.675 19.5835 0.004255 0.026849 11.320426
2006-05-15 07:43:55 51°13.789 2°55.672 19.5827 0.004255 0.026849 11.286717
2006-05-15 07:44:01 51°13.795 2°55.668 19.5731 0.004255 0.026849 11.286717
2006-05-15 07:44:05 51°13.799 2°55.665 19.5656 0.004359 0.02729 11.286717
2006-05-15 07:44:11 51°13.805 2°55.66 19.5792 0.004255 0.026849 11.320426
2006-05-15 07:44:16 51°13.81 2°55.656 19.5698 0.004359 0.02729 11.320426
2006-05-15 07:44:21 51°13.816 2°55.651 19.5485 0.004359 0.02729 11.320426
2006-05-15 07:44:25 51°13.821 2°55.647 19.5486 0.004255 0.026849 11.320426
2006-05-15 07:44:31 51°13.828 2°55.641 19.5265 0.004255 0.026849 11.320426
2006-05-15 07:44:35 51°13.834 2°55.637 19.525 0.004359 0.02729 11.286717
2006-05-15 07:44:41 51°13.842 2°55.631 19.5411 0.004359 0.02729 11.320426
2006-05-15 07:44:45 51°13.848 2°55.627 19.5309 0.004359 0.02729 11.320426
2006-05-15 07:44:51 51°13.856 2°55.62 19.5339 0.004255 0.026849 11.320426
2006-05-15 07:44:55 51°13.862 2°55.616 19.524 0.004359 0.02729 11.286717
2006-05-15 07:45:01 51°13.871 2°55.609 19.5189 0.004359 0.02729 11.320426
2006-05-15 07:45:05 51°13.877 2°55.604 19.5191 0.004359 0.02729 11.320426
2006-05-15 07:45:11 51°13.887 2°55.597 19.5415 0.004359 0.02729 11.320426
2006-05-15 07:45:15 51°13.893 2°55.592 19.5482 0.004255 0.026849 11.286717
2006-05-15 07:45:21 51°13.903 2°55.586 19.5622 0.004359 0.02729 11.320426
2006-05-15 07:45:25 51°13.909 2°55.581 19.5692 0.004255 0.026849 11.320426
2006-05-15 07:45:31 51°13.919 2°55.574 19.5675 0.004255 0.026849 11.320426
2006-05-15 07:45:35 51°13.926 2°55.57 19.5723 0.004255 0.026849 11.320426
2006-05-15 07:45:40 51°13.934 2°55.564 19.5751 0.004359 0.02729 11.320426
2006-05-15 07:45:45 51°13.943 2°55.559 19.5775 0.004255 0.026849 11.320426
2006-05-15 07:45:51 51°13.953 2°55.552 19.5974 0.004359 0.02729 11.286717
2006-05-15 07:45:55 51°13.96 2°55.547 19.6127 0.004359 0.027291 11.286717
2006-05-15 07:46:00 51°13.968 2°55.541 19.606 0.004359 0.02729 11.286717
2006-05-15 07:46:05 51°13.977 2°55.534 19.6096 0.004359 0.02729 11.286717
2006-05-15 07:46:11 51°13.987 2°55.526 19.6118 0.004359 0.027291 11.320426
2006-05-15 07:46:15 51°13.994 2°55.521 19.6168 0.004359 0.027291 11.320426
2006-05-15 07:46:21 51°14.004 2°55.513 19.6269 0.004359 0.027291 11.354136
2006-05-15 07:46:25 51°14.01 2°55.508 19.6268 0.004255 0.026849 11.286717
2006-05-15 07:46:31 51°14.021 2°55.5 19.6353 0.004255 0.026849 11.286717
2006-05-15 07:46:35 51°14.028 2°55.495 19.6374 0.004359 0.027291 11.320426
2006-05-15 07:46:40 51°14.036 2°55.488 19.6447 0.004359 0.027291 11.286717
2006-05-15 07:46:45 51°14.045 2°55.481 19.6532 0.004359 0.027291 11.320426
2006-05-15 07:46:50 51°14.053 2°55.474 19.6587 0.004255 0.026849 11.286717
2006-05-15 07:46:55 51°14.061 2°55.467 19.6642 0.004255 0.026849 11.320426
2006-05-15 07:47:00 51°14.07 2°55.46 19.6678 0.004255 0.026849 11.286717
2006-05-15 07:47:05 51°14.078 2°55.453 19.6709 0.004255 0.026849 11.286717
2006-05-15 07:47:10 51°14.086 2°55.445 19.671 0.004255 0.026849 11.320426
2006-05-15 07:47:15 51°14.095 2°55.438 19.6723 0.004255 0.02685 11.286717
2006-05-15 07:47:20 51°14.103 2°55.431 19.6709 0.004255 0.02685 11.320426
2006-05-15 07:47:25 51°14.111 2°55.423 19.6755 0.004255 0.02685 11.286717
2006-05-15 07:47:29 51°14.118 2°55.417 19.6792 0.004359 0.027291 11.320426
2006-05-15 07:47:35 51°14.128 2°55.409 19.6846 0.004359 0.027291 11.320426
2006-05-15 07:47:40 51°14.137 2°55.401 19.689 0.004359 0.027291 11.320426
2006-05-15 07:47:45 51°14.145 2°55.393 19.6924 0.004255 0.02685 11.320426
2006-05-15 07:47:50 51°14.153 2°55.386 19.6972 0.004359 0.027291 11.286717
2006-05-15 07:47:55 51°14.161 2°55.377 19.6986 0.004359 0.027291 11.286717
2006-05-15 07:47:58 51°14.166 2°55.372 19.7107 0.004359 0.027291 11.286717
2006-05-15 07:48:04 51°14.176 2°55.361 19.721 0.004255 0.02685 11.320426
2006-05-15 07:48:10 51°14.186 2°55.35 19.7357 0.004359 0.027291 11.286717
2006-05-15 07:48:14 51°14.193 2°55.343 19.746 0.004255 0.02685 11.320426
2006-05-15 07:48:20 51°14.203 2°55.332 19.7605 0.004255 0.02685 11.286717
2006-05-15 07:48:24 51°14.21 2°55.324 19.7542 0.004359 0.027291 11.286717
2006-05-15 07:48:30 51°14.22 2°55.311 19.758 0.004359 0.027291 11.286717
2006-05-15 07:48:35 51°14.228 2°55.3 19.7491 0.004255 0.02685 11.286717
2006-05-15 07:48:40 51°14.237 2°55.288 19.7325 0.004255 0.02685 11.320426
2006-05-15 07:48:45 51°14.245 2°55.276 19.7336 0.004359 0.027291 11.320426
2006-05-15 07:48:50 51°14.253 2°55.264 19.708 0.004255 0.02685 11.320426
2006-05-15 07:48:55 51°14.261 2°55.251 19.7179 0.004359 0.027291 11.320426
2006-05-15 07:49:00 51°14.269 2°55.238 19.7195 0.004359 0.027291 11.320426
2006-05-15 07:49:05 51°14.277 2°55.224 19.6811 0.004359 0.027291 11.320426
2006-05-15 07:49:11 51°14.287 2°55.208 19.6589 0.004255 0.02685 11.320426
2006-05-15 07:49:15 51°14.294 2°55.197 19.7548 0.004255 0.02685 11.320426
2006-05-15 07:49:20 51°14.302 2°55.184 19.7635 0.004359 0.027291 11.320426
2006-05-15 07:49:25 51°14.31 2°55.17 19.7027 0.004359 0.027291 11.320426
2006-05-15 07:49:30 51°14.318 2°55.156 19.6995 0.004359 0.027291 11.320426
2006-05-15 07:49:35 51°14.326 2°55.142 19.7327 0.004359 0.027291 11.320426
2006-05-15 07:49:40 51°14.334 2°55.128 19.6786 0.004255 0.02685 11.320426
2006-05-15 07:49:45 51°14.342 2°55.114 19.7106 0.004359 0.027291 11.320426
2006-05-15 07:49:50 51°14.35 2°55.099 19.6786 0.004359 0.027291 11.320426
2006-05-15 07:49:55 51°14.358 2°55.085 19.7674 0.004359 0.027291 11.320426
2006-05-15 07:50:00 51°14.366 2°55.07 19.6827 0.004359 0.027291 11.320426
2006-05-15 07:50:05 51°14.374 2°55.055 19.7509 0.004255 0.02685 11.354136
2006-05-15 07:50:10 51°14.381 2°55.04 19.7535 0.004359 0.027291 11.320426
2006-05-15 07:50:14 51°14.387 2°55.028 19.6891 0.004255 0.02685 11.320426
2006-05-15 07:50:20 51°14.395 2°55.009 19.7599 0.004359 0.027291 11.320426
2006-05-15 07:50:24 51°14.4 2°54.996 19.6802 0.004359 0.027292 11.320426
2006-05-15 07:50:29 51°14.406 2°54.979 19.7126 0.004255 0.02685 11.320426
2006-05-15 07:50:35 51°14.413 2°54.958 19.7871 0.004255 0.02685 11.320426
2006-05-15 07:50:40 51°14.418 2°54.941 19.7634 0.004255 0.02685 11.320426
2006-05-15 07:50:45 51°14.422 2°54.923 19.7571 0.004359 0.027292 11.320426
2006-05-15 07:50:49 51°14.425 2°54.908 19.7277 0.004359 0.027292 11.320426
2006-05-15 07:50:55 51°14.429 2°54.886 19.6896 0.004255 0.02685 11.320426
2006-05-15 07:51:00 51°14.432 2°54.867 19.7208 0.004255 0.02685 11.320426
2006-05-15 07:51:05 51°14.436 2°54.849 19.7263 0.004359 0.027292 11.286717
2006-05-15 07:51:10 51°14.439 2°54.829 19.7209 0.004359 0.027292 11.320426
2006-05-15 07:51:15 51°14.441 2°54.809 19.6642 0.004359 0.027292 11.320426
2006-05-15 07:51:20 51°14.444 2°54.788 19.6726 0.004255 0.02685 11.320426
2006-05-15 07:51:25 51°14.446 2°54.766 19.6354 0.004255 0.02685 11.286717
2006-05-15 07:51:29 51°14.448 2°54.748 19.6614 0.004359 0.027292 11.320426
2006-05-15 07:51:35 51°14.451 2°54.72 19.5862 0.004359 0.027292 11.320426
2006-05-15 07:51:40 51°14.455 2°54.696 19.6423 0.004359 0.027292 11.286717
2006-05-15 07:51:45 51°14.458 2°54.671 19.595 0.004359 0.027292 11.320426
2006-05-15 07:51:49 51°14.462 2°54.651 19.6215 0.004255 0.026851 11.286717
2006-05-15 07:51:55 51°14.467 2°54.621 19.6123 0.004255 0.026851 11.320426
2006-05-15 07:51:59 51°14.472 2°54.6 19.6091 0.004255 0.026851 11.320426
2006-05-15 07:52:05 51°14.478 2°54.569 19.5583 0.004359 0.027292 11.286717
2006-05-15 07:52:10 51°14.484 2°54.543 19.6128 0.004255 0.026851 11.286717
2006-05-15 07:52:15 51°14.491 2°54.516 19.6303 0.004255 0.026851 11.320426
2006-05-15 07:52:20 51°14.498 2°54.489 19.6423 0.004255 0.026851 11.320426
2006-05-15 07:52:25 51°14.504 2°54.462 19.5787 0.004359 0.027292 11.286717
2006-05-15 07:52:30 51°14.51 2°54.434 19.5974 0.004359 0.027292 11.320426
2006-05-15 07:52:33 51°14.514 2°54.417 19.5885 0.004359 0.027292 11.320426
2006-05-15 07:52:40 51°14.522 2°54.378 19.6293 0.004359 0.027292 11.286717
2006-05-15 07:52:45 51°14.528 2°54.349 19.6719 0.004359 0.027292 11.320426
2006-05-15 07:52:50 51°14.533 2°54.32 19.6118 0.004359 0.027292 11.320426
2006-05-15 07:52:55 51°14.539 2°54.291 19.6397 0.004255 0.026851 11.320426
2006-05-15 07:53:00 51°14.544 2°54.262 19.5709 0.004255 0.026851 11.320426
2006-05-15 07:53:04 51°14.547 2°54.238 19.6087 0.004255 0.026851 11.286717
2006-05-15 07:53:09 51°14.552 2°54.208 19.5544 0.004359 0.027292 11.286717
2006-05-15 07:53:14 51°14.556 2°54.179 19.5982 0.004255 0.026851 11.286717
2006-05-15 07:53:20 51°14.561 2°54.143 19.5458 0.004255 0.026851 11.320426
2006-05-15 07:53:25 51°14.566 2°54.113 19.5909 0.004255 0.026851 11.320426
2006-05-15 07:53:30 51°14.571 2°54.084 19.5063 0.004255 0.026851 11.320426
2006-05-15 07:53:35 51°14.576 2°54.055 19.5628 0.004255 0.026851 11.286717
2006-05-15 07:53:40 51°14.582 2°54.026 19.5967 0.004255 0.026851 11.320426
2006-05-15 07:53:45 51°14.588 2°53.997 19.6091 0.004255 0.026851 11.320426
2006-05-15 07:53:50 51°14.593 2°53.968 19.5628 0.004255 0.026851 11.320426
2006-05-15 07:53:55 51°14.599 2°53.94 19.6335 0.004359 0.027293 11.286717
2006-05-15 07:54:00 51°14.605 2°53.911 19.6342 0.004255 0.026851 11.286717
2006-05-15 07:54:05 51°14.61 2°53.883 19.6509 0.004255 0.026851 11.286717
2006-05-15 07:54:09 51°14.614 2°53.859 19.6363 0.004359 0.027293 11.286717
2006-05-15 07:54:15 51°14.62 2°53.825 19.6066 0.004359 0.027293 11.320426
2006-05-15 07:54:20 51°14.625 2°53.796 19.578 0.004359 0.027293 11.286717
2006-05-15 07:54:25 51°14.629 2°53.767 19.6134 0.004255 0.026852 11.320426
2006-05-15 07:54:28 51°14.631 2°53.749 19.6003 0.004255 0.026852 11.320426
2006-05-15 07:54:35 51°14.636 2°53.709 19.535 0.004255 0.026852 11.320426
2006-05-15 07:54:40 51°14.64 2°53.68 19.6031 0.004255 0.026852 11.320426
2006-05-15 07:54:45 51°14.643 2°53.652 19.6101 0.004255 0.026852 11.354136
2006-05-15 07:54:49 51°14.645 2°53.629 19.5972 0.004255 0.026852 11.354136
2006-05-15 07:54:54 51°14.647 2°53.601 19.5948 0.004359 0.027294 11.320426
2006-05-15 07:55:00 51°14.649 2°53.567 19.5622 0.004359 0.027294 11.320426
2006-05-15 07:55:05 51°14.651 2°53.538 19.5709 0.004359 0.027294 11.286717
2006-05-15 07:55:10 51°14.652 2°53.509 19.5255 0.004255 0.026852 11.286717
2006-05-15 07:55:15 51°14.653 2°53.48 19.5995 0.004255 0.026852 11.286717
2006-05-15 07:55:20 51°14.654 2°53.451 19.6066 0.004255 0.026852 11.320426
2006-05-15 07:55:25 51°14.655 2°53.422 19.556 0.004359 0.027294 11.286717
2006-05-15 07:55:30 51°14.655 2°53.393 19.5965 0.004359 0.027294 11.286717
2006-05-15 07:55:34 51°14.655 2°53.369 19.5489 0.004255 0.026852 11.320426
2006-05-15 07:55:40 51°14.654 2°53.334 19.5909 0.004255 0.026852 11.286717
2006-05-15 07:55:45 51°14.654 2°53.305 19.6096 0.004359 0.027294 11.320426
2006-05-15 07:55:49 51°14.653 2°53.281 19.6046 0.004359 0.027294 11.320426
2006-05-15 07:55:55 51°14.651 2°53.246 19.6032 0.004359 0.027294 11.320426
2006-05-15 07:56:00 51°14.65 2°53.216 19.5771 0.004255 0.026853 11.286717
2006-05-15 07:56:05 51°14.649 2°53.186 19.5952 0.004255 0.026853 11.286717
2006-05-15 07:56:09 51°14.647 2°53.163 19.5909 0.004255 0.026853 11.320426
2006-05-15 07:56:15 51°14.646 2°53.127 19.5638 0.004359 0.027295 11.286717
2006-05-15 07:56:20 51°14.645 2°53.097 19.5683 0.004255 0.026853 11.286717
2006-05-15 07:56:25 51°14.644 2°53.068 19.5711 0.004255 0.026853 11.286717
2006-05-15 07:56:29 51°14.644 2°53.044 19.587 0.004255 0.026853 11.286717
2006-05-15 07:56:35 51°14.644 2°53.008 19.579 0.004255 0.026853 11.286717
2006-05-15 07:56:40 51°14.644 2°52.978 19.5919 0.004359 0.027295 11.320426
2006-05-15 07:56:45 51°14.644 2°52.948 19.5562 0.004359 0.027295 11.286717
2006-05-15 07:56:49 51°14.645 2°52.924 19.5736 0.004255 0.026853 11.320426
2006-05-15 07:56:55 51°14.645 2°52.888 19.6068 0.004255 0.026853 11.286717
2006-05-15 07:56:59 51°14.644 2°52.864 19.5816 0.004255 0.026853 11.286717
2006-05-15 07:57:05 51°14.643 2°52.828 19.6075 0.004255 0.026853 11.320426
2006-05-15 07:57:09 51°14.642 2°52.803 19.6217 0.004359 0.027295 11.286717
2006-05-15 07:57:15 51°14.639 2°52.767 19.5924 0.004359 0.027295 11.286717
2006-05-15 07:57:19 51°14.636 2°52.743 19.5851 0.004255 0.026854 11.320426
2006-05-15 07:57:25 51°14.632 2°52.707 19.5755 0.004255 0.026854 11.320426
2006-05-15 07:57:30 51°14.627 2°52.677 19.5954 0.004255 0.026854 11.320426
2006-05-15 07:57:35 51°14.623 2°52.647 19.6017 0.004255 0.026854 11.320426
2006-05-15 07:57:40 51°14.619 2°52.617 19.5786 0.004255 0.026854 11.320426
2006-05-15 07:57:45 51°14.615 2°52.587 19.5519 0.004255 0.026854 11.320426
2006-05-15 07:57:50 51°14.611 2°52.557 19.6102 0.004359 0.027296 11.286717
2006-05-15 07:57:55 51°14.607 2°52.526 19.5767 0.004255 0.026854 11.320426
2006-05-15 07:58:00 51°14.603 2°52.496 19.5166 0.004255 0.026854 11.320426
2006-05-15 07:58:05 51°14.599 2°52.466 19.5602 0.004255 0.026854 11.320426
2006-05-15 07:58:09 51°14.596 2°52.441 19.5152 0.004255 0.026854 11.320426
2006-05-15 07:58:15 51°14.592 2°52.405 19.6021 0.004359 0.027296 11.286717
2006-05-15 07:58:20 51°14.588 2°52.375 19.5753 0.004359 0.027296 11.286717
2006-05-15 07:58:25 51°14.584 2°52.345 19.5634 0.004255 0.026855 11.320426
2006-05-15 07:58:30 51°14.58 2°52.314 19.5421 0.004255 0.026855 11.320426
2006-05-15 07:58:34 51°14.577 2°52.29 19.6138 0.004359 0.027297 11.286717
2006-05-15 07:58:40 51°14.572 2°52.254 19.593 0.004359 0.027297 11.286717
2006-05-15 07:58:45 51°14.568 2°52.224 18.0991 0.004359 0.027297 11.320426
2006-05-15 07:58:49 51°14.565 2°52.2 15.8349 0.004255 0.026855 11.286717
2006-05-15 07:58:55 51°14.56 2°52.163 14.9797 0.004359 0.027297 11.320426
2006-05-15 07:58:59 51°14.557 2°52.139 14.5554 0.004359 0.027297 11.320426
2006-05-15 07:59:04 51°14.554 2°52.109 14.3187 0.004359 0.027309 11.320426
2006-05-15 07:59:10 51°14.55 2°52.072 14.2194 3.989536 26.501745 23.48952
2006-05-15 07:59:15 51°14.547 2°52.042 14.1361 3.951085 26.91889 24.298546
2006-05-15 07:59:20 51°14.544 2°52.011 14.1002 4.045335 29.292376 15.331845
2006-05-15 07:59:25 51°14.542 2°51.98 14.132 4.164037 31.447229 13.983469
2006-05-15 07:59:30 51°14.54 2°51.95 14.114 4.093117 31.807288 12.837349
2006-05-15 07:59:35 51°14.539 2°51.919 13.9945 4.093117 31.807288 12.837349
2006-05-15 07:59:39 51°14.538 2°51.895 13.9512 4.086806 32.561988 12.500255
2006-05-15 07:59:45 51°14.538 2°51.858 13.9249 4.051293 32.609826 12.399127
2006-05-15 07:59:50 51°14.538 2°51.827 13.9025 4.018942 32.629345 12.399127
2006-05-15 07:59:55 51°14.538 2°51.797 13.8492 4.000185 32.603633 12.365418
2006-05-15 08:00:00 51°14.538 2°51.766 13.8892 3.915139 31.888778 12.331708
2006-05-15 08:00:05 51°14.538 2°51.735 13.8675 3.915139 31.888778 12.331708
2006-05-15 08:00:08 51°14.538 2°51.717 13.842 3.944226 32.229282 12.297999
2006-05-15 08:00:15 51°14.537 2°51.674 13.8401 3.917355 32.06032 12.331708
2006-05-15 08:00:19 51°14.536 2°51.649 13.8259 3.936852 32.315861 12.297999
2006-05-15 08:00:25 51°14.535 2°51.612 13.8065 3.910612 32.131195 12.365418
2006-05-15 08:00:30 51°14.533 2°51.581 13.7975 3.910612 32.131195 12.365418
2006-05-15 08:00:35 51°14.53 2°51.55 13.7977 3.798812 31.143417 12.331708
2006-05-15 08:00:40 51°14.526 2°51.52 13.7923 3.959827 32.635153 12.365418
2006-05-15 08:00:45 51°14.522 2°51.489 13.8012 3.960987 32.665897 12.399127
2006-05-15 08:00:49 51°14.518 2°51.465 13.8206 3.85508 31.703137 12.399127
2006-05-15 08:00:55 51°14.512 2°51.429 13.8065 3.955507 32.646635 12.365418
2006-05-15 08:01:00 51°14.506 2°51.399 13.8513 3.955613 32.666436 12.365418
2006-05-15 08:01:05 51°14.501 2°51.369 13.8319 3.955613 32.666436 12.365418
2006-05-15 08:01:09 51°14.497 2°51.345 13.8221 3.952768 32.662332 12.297999
2006-05-15 08:01:15 51°14.49 2°51.31 13.83 3.951819 32.662048 12.264289
2006-05-15 08:01:19 51°14.486 2°51.286 13.8035 3.945918 32.611577 12.163161
2006-05-15 08:01:25 51°14.479 2°51.25 13.8137 3.946023 32.617094 12.062033
2006-05-15 08:01:30 51°14.474 2°51.22 13.8084 3.933377 32.498666 12.028324
2006-05-15 08:01:35 51°14.47 2°51.189 13.803 3.933377 32.498666 12.028324
2006-05-15 08:01:39 51°14.467 2°51.165 13.8048 3.942545 32.57208 11.960905
2006-05-15 08:01:45 51°14.464 2°51.128 13.7871 3.925579 32.421058 11.927195
2006-05-15 08:01:50 51°14.462 2°51.097 13.7783 3.9397 32.55625 11.927195
2006-05-15 08:01:55 51°14.46 2°51.066 13.7756 3.929584 32.470201 12.028324
2006-05-15 08:02:00 51°14.458 2°51.036 13.7758 3.929584 32.470201 12.028324
2006-05-15 08:02:05 51°14.457 2°51.005 13.7547 3.935696 32.531678 12.062033
2006-05-15 08:02:10 51°14.455 2°50.974 13.7472 3.938436 32.556921 12.196871
2006-05-15 08:02:15 51°14.453 2°50.943 13.7487 3.941176 32.592558 12.23058
2006-05-15 08:02:20 51°14.451 2°50.912 13.7395 3.937488 32.568299 12.331708
2006-05-15 08:02:25 51°14.448 2°50.881 13.741 3.944549 32.643815 12.399127
2006-05-15 08:02:30 51°14.444 2°50.85 13.7475 3.944549 32.643815 12.399127
2006-05-15 08:02:35 51°14.44 2°50.82 13.7441 3.947289 32.679522 12.432836
2006-05-15 08:02:40 51°14.435 2°50.79 13.7421 3.945497 32.668856 12.466546
2006-05-15 08:02:45 51°14.429 2°50.76 13.7458 3.947078 32.69715 12.500255
2006-05-15 08:02:49 51°14.425 2°50.736 13.7527 3.946235 32.693282 12.500255
2006-05-15 08:02:55 51°14.418 2°50.7 13.7493 3.946025 32.699172 12.533965
2006-05-15 08:03:00 51°14.413 2°50.669 13.7514 3.94887 32.726764 12.500255
2006-05-15 08:03:05 51°14.407 2°50.64 13.7443 3.94887 32.726764 12.500255
2006-05-15 08:03:10 51°14.402 2°50.609 13.7392 3.935697 32.609004 12.466546
2006-05-15 08:03:15 51°14.397 2°50.579 13.7423 3.949186 32.734263 12.466546
2006-05-15 08:03:20 51°14.392 2°50.549 13.735 3.94339 32.680712 12.432836
2006-05-15 08:03:25 51°14.386 2°50.519 13.726 3.949608 32.73685 12.466546
2006-05-15 08:03:30 51°14.381 2°50.489 13.7329 3.948238 32.727461 12.432836
2006-05-15 08:03:34 51°14.377 2°50.465 13.7409 3.948238 32.727461 12.432836
2006-05-15 08:03:40 51°14.371 2°50.428 13.7342 3.947079 32.716749 12.466546
2006-05-15 08:03:45 51°14.366 2°50.398 13.7315 3.949924 32.746968 12.500255
2006-05-15 08:03:49 51°14.363 2°50.373 13.7178 3.948765 32.741489 12.533965
2006-05-15 08:03:55 51°14.358 2°50.337 13.7234 3.940545 32.668788 12.533965
2006-05-15 08:04:00 51°14.356 2°50.306 13.706 3.953507 32.792538 12.601383
2006-05-15 08:04:05 51°14.353 2°50.275 13.711 3.953507 32.792538 12.601383
2006-05-15 08:04:09 51°14.352 2°50.25 13.7005 3.952453 32.783449 12.668802
2006-05-15 08:04:14 51°14.349 2°50.219 13.7038 3.953929 32.797747 12.668802
2006-05-15 08:04:19 51°14.347 2°50.187 13.6809 3.95572 32.81694 12.80364
2006-05-15 08:04:25 51°14.344 2°50.15 13.6762 3.951084 32.777334 12.871059
2006-05-15 08:04:29 51°14.343 2°50.125 13.6868 3.951084 32.777334 12.871059
2006-05-15 08:04:35 51°14.339 2°50.088 13.6821 3.957407 32.840417 13.005896
2006-05-15 08:04:40 51°14.335 2°50.057 13.6775 3.959725 32.869101 13.039606
2006-05-15 08:04:45 51°14.331 2°50.026 13.6783 3.958145 32.858416 13.140734
2006-05-15 08:04:50 51°14.325 2°49.995 13.6793 3.959304 32.874408 13.174443
2006-05-15 08:04:55 51°14.321 2°49.965 13.6807 3.95003 32.801045 13.208153
2006-05-15 08:05:00 51°14.315 2°49.935 13.6891 3.962782 32.924398 13.275571
2006-05-15 08:05:05 51°14.309 2°49.904 13.6904 3.962782 32.924398 13.275571
2006-05-15 08:05:09 51°14.304 2°49.88 13.7031 3.951822 32.822888 13.275571
2006-05-15 08:05:15 51°14.297 2°49.844 13.6967 3.964363 32.941682 13.275571
2006-05-15 08:05:20 51°14.29 2°49.814 13.699 3.965311 32.956411 13.275571
2006-05-15 08:05:25 51°14.284 2°49.784 13.6945 3.963204 32.938198 13.241862
2006-05-15 08:05:30 51°14.278 2°49.753 13.7062 3.963204 32.938198 13.241862
2006-05-15 08:05:35 51°14.272 2°49.723 13.7136 3.965101 32.955778 13.208153
2006-05-15 08:05:39 51°14.268 2°49.698 13.7152 3.961728 32.921888 13.208153
2006-05-15 08:05:45 51°14.261 2°49.661 13.7122 3.96352 32.933211 13.208153
2006-05-15 08:05:48 51°14.258 2°49.643 13.7128 3.963204 32.930941 13.241862
2006-05-15 08:05:55 51°14.252 2°49.599 13.7371 3.959304 32.89416 13.275571
2006-05-15 08:05:59 51°14.249 2°49.574 13.7194 3.959304 32.89416 13.275571
2006-05-15 08:06:05 51°14.243 2°49.537 13.7095 3.952454 32.830058 13.309281
2006-05-15 08:06:09 51°14.24 2°49.512 13.706 3.958461 32.879765 13.34299
2006-05-15 08:06:15 51°14.235 2°49.474 13.7101 3.957512 32.867033 13.3767
2006-05-15 08:06:19 51°14.232 2°49.449 13.7045 3.961096 32.898237 13.410409
2006-05-15 08:06:25 51°14.226 2°49.412 13.6973 3.953824 32.828282 13.410409
2006-05-15 08:06:29 51°14.223 2°49.387 13.6993 3.958039 32.864674 13.444118
2006-05-15 08:06:35 51°14.216 2°49.351 13.7106 3.958039 32.864674 13.444118
2006-05-15 08:06:40 51°14.211 2°49.32 13.7033 3.956353 32.848408 13.511537
2006-05-15 08:06:44 51°14.206 2°49.295 13.6953 3.961728 32.904751 13.511537
2006-05-15 08:06:49 51°14.2 2°49.265 13.7007 3.962887 32.918782 13.545247
2006-05-15 08:06:54 51°14.194 2°49.234 13.6997 3.951822 32.818288 13.545247
2006-05-15 08:07:00 51°14.187 2°49.198 13.7034 3.951822 32.818288 13.545247
2006-05-15 08:07:05 51°14.181 2°49.167 13.7048 3.964363 32.939043 13.511537
2006-05-15 08:07:09 51°14.176 2°49.143 13.6937 3.962677 32.923422 13.511537
2006-05-15 08:07:15 51°14.169 2°49.107 13.6945 3.962466 32.922129 13.477828
2006-05-15 08:07:20 51°14.164 2°49.076 13.6947 3.961939 32.919225 13.477828
2006-05-15 08:07:25 51°14.158 2°49.046 13.6912 3.964574 32.944294 13.477828
2006-05-15 08:07:29 51°14.154 2°49.021 13.6941 3.960358 32.904581 13.410409
2006-05-15 08:07:35 51°14.149 2°48.983 13.6715 3.960358 32.904581 13.410409
2006-05-15 08:07:39 51°14.145 2°48.959 13.6711 3.961517 32.914001 13.444118
2006-05-15 08:07:45 51°14.139 2°48.922 13.6665 3.96078 32.909804 13.410409
2006-05-15 08:07:49 51°14.135 2°48.897 13.6688 3.96236 32.927747 13.410409
2006-05-15 08:07:55 51°14.129 2°48.86 13.6678 3.954457 32.855839 13.444118
2006-05-15 08:08:00 51°14.124 2°48.829 13.6607 3.954457 32.855839 13.444118
2006-05-15 08:08:05 51°14.119 2°48.799 13.6535 3.95551 32.868235 13.477828
2006-05-15 08:08:09 51°14.114 2°48.774 13.652 3.969211 32.999161 13.477828
2006-05-15 08:08:15 51°14.108 2°48.738 13.6485 3.970475 33.018825 13.545247
2006-05-15 08:08:20 51°14.102 2°48.707 13.645 3.967314 32.992815 13.578956
2006-05-15 08:08:25 51°14.095 2°48.677 13.6452 3.971108 33.033297 13.545247
2006-05-15 08:08:30 51°14.089 2°48.647 13.6475 3.968368 33.011852 13.578956
2006-05-15 08:08:34 51°14.084 2°48.623 13.6436 3.968368 33.011852 13.578956
2006-05-15 08:08:39 51°14.079 2°48.592 13.6469 3.969949 33.031816 13.578956
2006-05-15 08:08:45 51°14.072 2°48.556 13.6541 3.972689 33.05923 13.578956
2006-05-15 08:08:49 51°14.068 2°48.531 13.6503 3.973111 33.067121 13.578956
2006-05-15 08:08:55 51°14.062 2°48.494 13.6503 3.973216 33.070753 13.612665
2006-05-15 08:09:00 51°14.057 2°48.463 13.6435 3.970792 33.051571 13.646375
2006-05-15 08:09:05 51°14.053 2°48.432 13.639 3.970792 33.051571 13.646375
2006-05-15 08:09:09 51°14.05 2°48.407 13.6397 3.971741 33.057059 13.680084
2006-05-15 08:09:15 51°14.046 2°48.369 13.6305 3.96879 33.030335 13.646375
2006-05-15 08:09:20 51°14.043 2°48.339 13.6252 3.973427 33.07271 13.646375
2006-05-15 08:09:25 51°14.04 2°48.31 13.6324 3.971951 33.059678 13.680084
2006-05-15 08:09:30 51°14.037 2°48.282 13.6386 3.971951 33.059678 13.680084
2006-05-15 08:09:35 51°14.034 2°48.256 13.6321 3.973427 33.076028 13.713794
2006-05-15 08:09:40 51°14.032 2°48.232 13.6211 3.960991 32.962601 13.747503
2006-05-15 08:09:45 51°14.03 2°48.209 13.6266 3.973111 33.077739 13.747503
2006-05-15 08:09:50 51°14.028 2°48.187 13.6237 3.958884 32.950318 13.781212
2006-05-15 08:09:55 51°14.026 2°48.167 13.623 3.974165 33.097487 13.781212
2006-05-15 08:10:00 51°14.024 2°48.148 13.6289 3.973849 33.094551 13.848631
2006-05-15 08:10:05 51°14.021 2°48.129 13.6215 3.973849 33.094551 13.848631
2006-05-15 08:10:10 51°14.019 2°48.112 13.622 3.976272 33.116399 13.814922
2006-05-15 08:10:15 51°14.016 2°48.096 13.6253 3.960781 32.977189 13.848631
2006-05-15 08:10:20 51°14.013 2°48.081 13.6239 3.975008 33.111301 13.814922
2006-05-15 08:10:25 51°14.01 2°48.067 13.6302 3.977432 33.134484 13.848631
2006-05-15 08:10:29 51°14.007 2°48.056 13.6299 3.975008 33.113296 13.882341
2006-05-15 08:10:35 51°14.003 2°48.043 13.6249 3.975008 33.113296 13.882341
2006-05-15 08:10:40 51°14 2°48.033 13.6305 3.973638 33.101233 13.848631
2006-05-15 08:10:45 51°13.997 2°48.024 13.6345 3.976589 33.129313 13.882341
2006-05-15 08:10:48 51°13.995 2°48.02 13.6356 3.973427 33.100604 13.848631
2006-05-15 08:10:55 51°13.991 2°48.011 13.6385 3.958146 32.956702 13.848631
2006-05-15 08:11:00 51°13.989 2°48.007 13.6387 3.97016 33.066935 13.814922
2006-05-15 08:11:05 51°13.988 2°48.003 13.6422 3.97016 33.066935 13.814922
2006-05-15 08:11:09 51°13.988 2°48 13.64 3.968685 33.051905 13.814922
2006-05-15 08:11:15 51°13.987 2°47.998 13.6363 3.969633 33.062705 13.781212
2006-05-15 08:11:19 51°13.987 2°47.996 13.6436 3.962994 32.999723 13.814922
2006-05-15 08:11:25 51°13.987 2°47.994 13.6425 3.966155 33.027091 13.814922
2006-05-15 08:11:29 51°13.987 2°47.992 13.6314 3.966155 33.027091 13.814922
2006-05-15 08:11:35 51°13.986 2°47.99 13.629 3.956671 32.936391 13.848631
2006-05-15 08:11:41 51°13.986 2°47.988 13.6306 3.97153 33.072355 13.882341
2006-05-15 08:11:45 51°13.986 2°47.986 13.6259 3.9729 33.084414 13.882341
2006-05-15 08:11:49 51°13.985 2°47.984 13.6259 3.970582 33.062884 13.91605
2006-05-15 08:11:55 51°13.984 2°47.982 13.6228 3.975535 33.106889 13.983469
2006-05-15 08:12:01 51°13.984 2°47.979 13.6142 3.973111 33.084379 14.050888
2006-05-15 08:12:05 51°13.983 2°47.978 13.6188 3.973111 33.084379 14.050888
2006-05-15 08:12:11 51°13.983 2°47.976 13.6124 3.973322 33.092979 14.084597
2006-05-15 08:12:15 51°13.982 2°47.974 13.6113 3.979223 33.149799 14.152016
2006-05-15 08:12:20 51°13.981 2°47.972 13.6151 3.969317 33.059769 14.219435
2006-05-15 08:12:25 51°13.981 2°47.97 13.6147 3.975324 33.119558 14.219435
2006-05-15 08:12:29 51°13.98 2°47.969 13.613 3.976062 33.129074 14.320563
2006-05-15 08:12:35 51°13.979 2°47.966 13.6107 3.976062 33.129074 14.320563
2006-05-15 08:12:39 51°13.979 2°47.964 13.6069 3.974692 33.121001 14.320563
2006-05-15 08:12:44 51°13.978 2°47.963 13.6057 3.977221 33.145839 14.387982
2006-05-15 08:12:50 51°13.977 2°47.96 13.6036 3.973217 33.111281 14.421691
2006-05-15 08:12:55 51°13.976 2°47.958 13.6063 3.976378 33.140666 14.421691
2006-05-15 08:12:58 51°13.976 2°47.956 13.5992 3.976378 33.140666 14.421691
2006-05-15 08:13:05 51°13.975 2°47.953 13.5985 3.97406 33.118451 14.48911
2006-05-15 08:13:10 51°13.974 2°47.951 13.5972 3.975114 33.130908 14.4554
2006-05-15 08:13:15 51°13.974 2°47.949 13.5955 3.9729 33.111669 14.522819
2006-05-15 08:13:20 51°13.973 2°47.947 13.6004 3.981648 33.194318 14.556529
2006-05-15 08:13:25 51°13.972 2°47.944 13.5977 3.98091 33.190127 14.590238
2006-05-15 08:13:29 51°13.971 2°47.943 13.5924 3.97406 33.129101 14.623947
2006-05-15 08:13:35 51°13.971 2°47.94 13.5925 3.97406 33.129101 14.623947
2006-05-15 08:13:40 51°13.97 2°47.938 13.5966 3.977959 33.166689 14.691366
2006-05-15 08:13:45 51°13.969 2°47.935 13.5971 3.981437 33.201032 14.691366
2006-05-15 08:13:49 51°13.968 2°47.934 13.5948 3.975957 33.149403 14.725076
2006-05-15 08:13:55 51°13.968 2°47.931 13.5925 3.981542 33.203347 14.758785
2006-05-15 08:13:59 51°13.967 2°47.929 13.5901 3.980383 33.193232 14.792494
2006-05-15 08:14:05 51°13.966 2°47.926 13.583 3.980383 33.193232 14.792494
2006-05-15 08:14:10 51°13.965 2°47.924 13.5758 3.971531 33.113575 14.826204
2006-05-15 08:14:15 51°13.964 2°47.922 13.5693 3.977538 33.171437 14.859913
2006-05-15 08:14:20 51°13.964 2°47.919 13.5662 3.980172 33.194609 14.893623
2006-05-15 08:14:25 51°13.963 2°47.917 13.561 3.979013 33.181825 14.927332
2006-05-15 08:14:29 51°13.962 2°47.915 13.5631 3.979013 33.181825 14.927332
2006-05-15 08:14:35 51°13.961 2°47.912 13.5696 3.967315 33.073053 15.365554
2006-05-15 08:14:39 51°13.961 2°47.91 13.5694 3.976378 33.157322 15.197007
2006-05-15 08:14:44 51°13.96 2°47.907 13.571 3.966894 33.072458 15.129589
2006-05-15 08:14:50 51°13.959 2°47.905 13.5713 3.982596 33.2225 15.129589
2006-05-15 08:14:55 51°13.958 2°47.902 13.5719 3.979119 33.195485 15.197007
2006-05-15 08:15:00 51°13.958 2°47.9 13.568 3.979119 33.195485 15.197007
2006-05-15 08:15:05 51°13.957 2°47.897 13.5699 3.983545 33.240684 15.230717
2006-05-15 08:15:10 51°13.956 2°47.895 13.5667 3.97954 33.20475 15.230717
2006-05-15 08:15:15 51°13.955 2°47.892 13.5701 3.978697 33.196237 15.230717
2006-05-15 08:15:19 51°13.955 2°47.89 13.5714 3.980489 33.212241 15.298136
2006-05-15 08:15:25 51°13.954 2°47.887 13.5703 3.975219 33.161876 15.331845
2006-05-15 08:15:29 51°13.953 2°47.886 13.5682 3.969107 33.10435 15.331845
2006-05-15 08:15:35 51°13.953 2°47.883 13.5662 3.969107 33.10435 15.331845
2006-05-15 08:15:39 51°13.952 2°47.88 13.5653 3.983545 33.240015 15.365554
2006-05-15 08:15:45 51°13.951 2°47.877 13.5662 3.981754 33.22401 15.365554
2006-05-15 08:15:49 51°13.951 2°47.875 13.5654 3.97796 33.188704 15.399264
2006-05-15 08:15:55 51°13.95 2°47.872 13.5657 3.974166 33.152738 15.399264
2006-05-15 08:16:00 51°13.949 2°47.87 13.5662 3.972269 33.136424 15.466683
2006-05-15 08:16:05 51°13.949 2°47.867 13.5643 3.972269 33.136424 15.466683
2006-05-15 08:16:09 51°13.948 2°47.865 13.5645 3.984704 33.252143 15.500392
2006-05-15 08:16:15 51°13.947 2°47.862 13.5667 3.987655 33.281619 15.534101
2006-05-15 08:16:19 51°13.947 2°47.86 13.5651 3.983334 33.242066 15.567811
2006-05-15 08:16:25 51°13.946 2°47.857 13.5639 3.988182 33.287194 15.567811
2006-05-15 08:16:29 51°13.945 2°47.855 13.5648 3.987445 33.280996 15.63523
2006-05-15 08:16:35 51°13.944 2°47.852 13.5659 3.987445 33.280996 15.63523
2006-05-15 08:16:38 51°13.944 2°47.85 13.5669 3.988182 33.287194 15.668939
2006-05-15 08:16:45 51°13.943 2°47.847 13.5672 3.984704 33.254819 15.668939
2006-05-15 08:16:50 51°13.942 2°47.844 13.5688 3.982702 33.237518 15.736358
2006-05-15 08:16:55 51°13.942 2°47.842 13.5718 3.987445 33.282335 15.736358
2006-05-15 08:17:00 51°13.941 2°47.839 13.5733 3.974482 33.161683 15.736358
2006-05-15 08:17:05 51°13.94 2°47.836 13.5728 3.974482 33.161683 15.736358
2006-05-15 08:17:09 51°13.94 2°47.834 13.5742 3.973849 33.155132 15.770067
2006-05-15 08:17:15 51°13.939 2°47.831 13.5786 3.986496 33.272166 15.803777
2006-05-15 08:17:19 51°13.938 2°47.829 13.5815 3.987761 33.283939 15.837486
2006-05-15 08:17:25 51°13.938 2°47.826 13.5848 3.987128 33.278052 15.837486
2006-05-15 08:17:30 51°13.937 2°47.823 13.5823 3.98228 33.230919 15.871195
2006-05-15 08:17:35 51°13.936 2°47.82 13.582 3.98228 33.230919 15.871195
2006-05-15 08:17:40 51°13.935 2°47.818 13.5845 3.986074 33.265564 15.904905
2006-05-15 08:17:45 51°13.935 2°47.815 13.5844 3.979435 33.203102 15.904905
2006-05-15 08:17:49 51°13.934 2°47.813 13.5848 3.971109 33.122974 15.837486
2006-05-15 08:17:55 51°13.933 2°47.81 13.584 3.971109 33.120309 15.871195
2006-05-15 08:17:59 51°13.933 2°47.807 13.5859 3.984599 33.243805 15.938614
2006-05-15 08:18:05 51°13.932 2°47.804 13.5917 3.984599 33.243805 15.938614
2006-05-15 08:18:10 51°13.931 2°47.801 13.5952 3.986074 33.256867 15.972324
2006-05-15 08:18:15 51°13.931 2°47.798 13.597 3.981753 33.215324 16.006033
2006-05-15 08:18:20 51°13.93 2°47.796 13.6006 3.980805 33.207167 16.006033
2006-05-15 08:18:25 51°13.929 2°47.793 13.6029 3.986496 33.259452 16.039742
2006-05-15 08:18:29 51°13.929 2°47.79 13.6059 3.986496 33.259452 16.039742
2006-05-15 08:18:35 51°13.928 2°47.787 13.6077 3.98344 33.230345 16.039742
2006-05-15 08:18:39 51°13.927 2°47.784 13.61 3.983967 33.234579 16.073452
2006-05-15 08:18:44 51°13.926 2°47.781 13.6154 3.985126 33.24336 16.039742
2006-05-15 08:18:50 51°13.926 2°47.778 13.6192 3.985547 33.24394 16.073452
2006-05-15 08:18:55 51°13.925 2°47.775 13.6243 3.984493 33.231463 16.073452
2006-05-15 08:19:00 51°13.924 2°47.772 13.6282 3.983334 33.21734 16.107161
2006-05-15 08:19:05 51°13.923 2°47.769 13.628 3.983334 33.21734 16.107161
2006-05-15 08:19:09 51°13.923 2°47.767 13.6264 3.983229 33.21369 16.073452
2006-05-15 08:19:15 51°13.922 2°47.763 13.6269 3.978697 33.169548 16.107161
2006-05-15 08:19:19 51°13.921 2°47.761 13.6285 3.983439 33.21031 16.107161
2006-05-15 08:19:25 51°13.921 2°47.758 13.6296 3.982385 33.197175 16.107161
2006-05-15 08:19:29 51°13.92 2°47.755 13.631 3.97954 33.166723 16.107161
2006-05-15 08:19:35 51°13.919 2°47.752 13.6319 3.97954 33.166723 16.107161
2006-05-15 08:19:39 51°13.919 2°47.749 13.6326 3.980594 33.17252 16.107161
2006-05-15 08:19:45 51°13.918 2°47.746 13.6349 3.980172 33.16727 16.241999
2006-05-15 08:19:49 51°13.917 2°47.743 13.6344 3.978907 33.15485 16.241999
2006-05-15 08:19:55 51°13.917 2°47.74 13.637 3.97838 33.148622 16.275708
2006-05-15 08:20:00 51°13.916 2°47.737 13.6411 3.982069 33.182234 16.275708
2006-05-15 08:20:05 51°13.915 2°47.734 13.6427 3.982069 33.182234 16.275708
2006-05-15 08:20:09 51°13.915 2°47.731 13.6458 3.981753 33.17863 16.343127
2006-05-15 08:20:15 51°13.914 2°47.727 13.6489 3.97701 33.132564 16.343127
2006-05-15 08:20:20 51°13.913 2°47.724 13.6512 3.975008 33.112631 16.376836
2006-05-15 08:20:25 51°13.913 2°47.721 13.6516 3.978275 33.141652 16.376836
2006-05-15 08:20:29 51°13.912 2°47.719 13.6526 3.98228 33.178196 16.376836
2006-05-15 08:20:35 51°13.911 2°47.715 13.6541 3.98228 33.178196 16.376836
2006-05-15 08:20:40 51°13.91 2°47.712 13.6545 3.979329 33.148781 16.410546
2006-05-15 08:20:45 51°13.91 2°47.709 13.656 3.980066 33.152972 16.410546
2006-05-15 08:20:49 51°13.909 2°47.707 13.6564 3.980593 33.154539 16.444255
2006-05-15 08:20:55 51°13.908 2°47.703 13.6581 3.979961 33.146669 16.477965
2006-05-15 08:20:58 51°13.908 2°47.701 13.6573 3.981542 33.160022 16.477965
2006-05-15 08:21:05 51°13.907 2°47.697 13.6583 3.981542 33.160022 16.477965
2006-05-15 08:21:09 51°13.906 2°47.694 13.6589 3.978696 33.132262 16.511674
2006-05-15 08:21:15 51°13.905 2°47.691 13.6607 3.981753 33.160648 16.545383
2006-05-15 08:21:20 51°13.904 2°47.687 13.6635 3.980699 33.148198 16.545383
2006-05-15 08:21:25 51°13.904 2°47.684 13.6647 3.979434 33.135788 16.579093
2006-05-15 08:21:29 51°13.903 2°47.682 13.6672 3.979539 33.134772 16.579093
2006-05-15 08:21:35 51°13.902 2°47.678 13.6739 3.979539 33.134772 16.579093
2006-05-15 08:21:39 51°13.902 2°47.676 13.6747 3.979329 33.13348 16.612802
2006-05-15 08:21:45 51°13.901 2°47.672 13.6807 3.980804 33.145851 16.646512
2006-05-15 08:21:50 51°13.9 2°47.669 13.6839 3.980382 33.141271 16.646512
2006-05-15 08:21:55 51°13.899 2°47.666 13.6878 3.978064 33.117749 16.646512
2006-05-15 08:22:00 51°13.899 2°47.662 13.6902 3.978064 33.117749 16.646512
2006-05-15 08:22:05 51°13.898 2°47.659 13.6913 3.981436 33.148397 16.71393
2006-05-15 08:22:09 51°13.897 2°47.657 13.6913 3.979434 33.126481 16.71393
2006-05-15 08:22:13 51°13.897 2°47.654 13.6886 3.980488 33.133607 16.680221
2006-05-15 08:22:20 51°13.896 2°47.65 13.6916 3.976904 33.096361 16.71393
2006-05-15 08:22:25 51°13.895 2°47.646 13.7008 3.977958 33.102822 16.74764
2006-05-15 08:22:30 51°13.894 2°47.643 13.7179 3.981225 33.130486 16.74764
2006-05-15 08:22:35 51°13.893 2°47.64 13.7333 3.981225 33.130486 16.74764
2006-05-15 08:22:39 51°13.893 2°47.638 13.7411 3.980909 33.124231 16.71393
2006-05-15 08:22:45 51°13.892 2°47.634 13.7505 3.976588 33.082147 16.781349
2006-05-15 08:22:49 51°13.891 2°47.631 13.7495 3.982279 33.133623 16.815059
2006-05-15 08:22:55 51°13.891 2°47.627 13.7467 3.980593 33.116648 16.815059
2006-05-15 08:23:00 51°13.89 2°47.624 13.7466 3.981963 33.12604 16.882477
2006-05-15 08:23:05 51°13.889 2°47.621 13.7484 3.981963 33.12604 16.882477
2006-05-15 08:23:10 51°13.888 2°47.618 13.7502 3.975956 33.060373 16.882477
2006-05-15 08:23:15 51°13.887 2°47.614 13.7524 3.980065 33.08788 16.916187
2006-05-15 08:23:19 51°13.887 2°47.612 13.7526 3.981541 33.090292 16.983606
2006-05-15 08:23:25 51°13.886 2°47.608 13.7508 3.983121 33.098317 16.983606
2006-05-15 08:23:30 51°13.885 2°47.604 13.7495 3.984175 33.106759 17.084734
2006-05-15 08:23:35 51°13.884 2°47.601 13.7506 3.984175 33.106759 17.084734
2006-05-15 08:23:40 51°13.883 2°47.598 13.7448 3.986072 33.122351 17.084734
2006-05-15 08:23:45 51°13.883 2°47.595 13.739 3.978274 33.049425 17.118443
2006-05-15 08:23:49 51°13.882 2°47.592 13.7366 3.987337 33.131419 17.118443
2006-05-15 08:23:55 51°13.881 2°47.588 13.7307 3.986178 33.11935 17.185862
2006-05-15 08:23:59 51°13.881 2°47.585 13.7286 3.986178 33.11935 17.185862
2006-05-15 08:24:05 51°13.88 2°47.581 13.7304 3.984597 33.104039 17.219571
2006-05-15 08:24:09 51°13.879 2°47.578 13.7281 3.986599 33.123256 17.219571
2006-05-15 08:24:14 51°13.878 2°47.574 13.7141 3.988918 33.146733 17.28699
2006-05-15 08:24:19 51°13.878 2°47.569 13.6975 3.985862 33.119734 17.28699
2006-05-15 08:24:24 51°13.877 2°47.564 13.6821 3.986494 33.130237 17.388118
2006-05-15 08:24:30 51°13.876 2°47.557 13.6719 3.983754 33.108154 17.421828
2006-05-15 08:24:35 51°13.875 2°47.55 13.659 3.983754 33.108154 17.421828
2006-05-15 08:24:40 51°13.875 2°47.541 13.6473 3.981225 33.088687 17.421828
2006-05-15 08:24:45 51°13.875 2°47.531 13.6472 3.984492 33.12096 17.455537
2006-05-15 08:24:50 51°13.875 2°47.52 13.6363 3.979012 33.073472 17.522956
2006-05-15 08:24:55 51°13.876 2°47.508 13.6219 3.985546 33.145335 17.624084
2006-05-15 08:25:00 51°13.878 2°47.496 13.6091 3.987021 33.169654 17.691503
2006-05-15 08:25:05 51°13.881 2°47.484 13.6051 3.987021 33.169654 17.691503
2006-05-15 08:25:09 51°13.884 2°47.474 13.6064 3.986495 33.178731 17.893759
2006-05-15 08:25:15 51°13.89 2°47.461 13.6122 3.985863 33.185506 17.961178
2006-05-15 08:25:20 51°13.895 2°47.45 13.6135 3.98639 33.196394 17.961178
2006-05-15 08:25:24 51°13.9 2°47.442 13.6075 3.98523 33.194953 18.163435
2006-05-15 08:25:29 51°13.906 2°47.434 13.6122 3.98523 33.194953 18.163435
2006-05-15 08:25:35 51°13.914 2°47.426 13.6154 3.989235 33.241503 18.365691
2006-05-15 08:25:40 51°13.921 2°47.42 13.6146 3.983545 33.201282 18.43311
2006-05-15 08:25:45 51°13.928 2°47.415 13.615 3.988814 33.254948 18.466819
2006-05-15 08:25:50 51°13.935 2°47.412 13.62 3.987549 33.246528 18.43311
2006-05-15 08:25:54 51°13.941 2°47.41 13.6212 3.97406 33.119782 18.567947
2006-05-15 08:25:59 51°13.948 2°47.408 13.6273 3.986285 33.234099 18.702785
2006-05-15 08:26:05 51°13.956 2°47.409 13.6266 3.986285 33.234099 18.702785
2006-05-15 08:26:09 51°13.961 2°47.41 13.6263 3.974797 33.127304 18.770204
2006-05-15 08:26:15 51°13.969 2°47.412 13.6234 3.983123 33.204034 18.871332
2006-05-15 08:26:19 51°13.974 2°47.415 13.6222 3.979434 33.169741 18.871332
2006-05-15 08:26:25 51°13.982 2°47.421 13.6226 3.976484 33.140314 18.871332
2006-05-15 08:26:30 51°13.988 2°47.426 13.6203 3.982069 33.190234 18.871332
2006-05-15 08:26:35 51°13.994 2°47.433 13.6184 3.982069 33.190234 18.871332
2006-05-15 08:26:39 51°13.998 2°47.439 13.6179 3.974797 33.119319 18.871332
2006-05-15 08:26:45 51°14.004 2°47.449 13.6169 3.978802 33.156535 18.938751
2006-05-15 08:26:49 51°14.007 2°47.457 13.6168 3.978802 33.155203 18.938751
2006-05-15 08:26:55 51°14.012 2°47.469 13.6165 3.982912 33.194737 18.938751
2006-05-15 08:27:00 51°14.015 2°47.479 13.6199 3.979434 33.163078 18.938751
2006-05-15 08:27:05 51°14.017 2°47.49 13.6177 3.979434 33.163078 18.938751
2006-05-15 08:27:09 51°14.019 2°47.498 13.6183 3.977854 33.149718 18.938751
2006-05-15 08:27:14 51°14.019 2°47.509 13.6197 3.973006 33.106662 18.938751
2006-05-15 08:27:20 51°14.02 2°47.521 13.618 3.967947 33.060987 18.97246
2006-05-15 08:27:25 51°14.02 2°47.532 13.6164 3.966788 33.05088 18.905042
2006-05-15 08:27:29 51°14.02 2°47.54 13.6145 3.966788 33.05088 18.905042
2006-05-15 08:27:35 51°14.019 2°47.553 13.6158 3.980172 33.1746 18.905042
2006-05-15 08:27:40 51°14.018 2°47.563 13.6128 3.967209 33.053468 18.905042
2006-05-15 08:27:45 51°14.016 2°47.572 13.6103 3.970793 33.087426 18.871332
2006-05-15 08:27:50 51°14.015 2°47.582 13.6064 3.975219 33.12856 18.871332
2006-05-15 08:27:55 51°14.013 2°47.59 13.6089 3.979856 33.172327 18.905042
2006-05-15 08:28:00 51°14.011 2°47.599 13.6052 3.975324 33.13087 18.938751
2006-05-15 08:28:05 51°14.009 2°47.607 13.6033 3.975324 33.13087 18.938751
2006-05-15 08:28:09 51°14.007 2°47.613 13.6019 3.972373 33.104776 18.97246
2006-05-15 08:28:15 51°14.005 2°47.623 13.6006 3.974587 33.126011 19.039879
2006-05-15 08:28:20 51°14.003 2°47.631 13.6005 3.969317 33.079033 19.073589
2006-05-15 08:28:25 51°14.001 2°47.638 13.6017 3.974165 33.126086 19.107298
2006-05-15 08:28:30 51°13.998 2°47.646 13.5998 3.97406 33.126438 19.208426
2006-05-15 08:28:35 51°13.997 2°47.653 13.5992 3.97406 33.126438 19.208426
2006-05-15 08:28:40 51°13.994 2°47.66 13.6037 3.976168 33.146699 19.208426
2006-05-15 08:28:45 51°13.993 2°47.667 13.6132 3.97269 33.11703 19.242136
2006-05-15 08:28:50 51°13.991 2°47.675 13.614 3.975957 33.148737 19.376973
2006-05-15 08:28:55 51°13.99 2°47.681 13.6209 3.975008 33.14125 19.410683
2006-05-15 08:28:59 51°13.989 2°47.687 13.6228 3.975008 33.14125 19.410683
2006-05-15 08:29:05 51°13.987 2°47.694 13.6257 3.972268 33.115774 19.444392
2006-05-15 08:29:10 51°13.986 2°47.701 13.6247 3.975957 33.150736 19.511811
2006-05-15 08:29:15 51°13.984 2°47.707 13.6213 3.974271 33.135057 19.54552
2006-05-15 08:29:20 51°13.983 2°47.713 13.6225 3.972584 33.116716 19.444392
2006-05-15 08:29:25 51°13.98 2°47.719 13.6226 3.978802 33.170528 19.478101
2006-05-15 08:29:30 51°13.978 2°47.725 13.6269 3.966683 33.053885 19.444392
2006-05-15 08:29:35 51°13.975 2°47.731 13.6251 3.966683 33.053885 19.444392
2006-05-15 08:29:39 51°13.974 2°47.735 13.6242 3.976273 33.139686 19.478101
2006-05-15 08:29:45 51°13.97 2°47.742 13.6228 3.978486 33.157593 19.57923
2006-05-15 08:29:50 51°13.967 2°47.747 13.6253 3.963205 33.014939 19.646648
2006-05-15 08:29:55 51°13.964 2°47.752 13.6237 3.97406 33.116455 19.646648
2006-05-15 08:30:00 51°13.961 2°47.757 13.6217 3.972163 33.097497 19.680358
2006-05-15 08:30:05 51°13.958 2°47.762 13.6209 3.972163 33.097497 19.680358
2006-05-15 08:30:09 51°13.955 2°47.766 13.621 3.969739 33.073646 19.714067
2006-05-15 08:30:15 51°13.952 2°47.772 13.62 3.971952 33.093544 19.747777
2006-05-15 08:30:20 51°13.948 2°47.776 13.6188 3.971214 33.08669 19.714067
2006-05-15 08:30:25 51°13.945 2°47.781 13.6117 3.97153 33.089627 19.747777
2006-05-15 08:30:30 51°13.942 2°47.786 13.6088 3.972373 33.098126 19.815195
2006-05-15 08:30:35 51°13.939 2°47.79 13.6077 3.972373 33.098126 19.815195
2006-05-15 08:30:39 51°13.936 2°47.794 13.6071 3.973849 33.111835 19.848905
2006-05-15 08:30:45 51°13.932 2°47.799 13.6065 3.963942 33.021128 19.916324
2006-05-15 08:30:49 51°13.93 2°47.803 13.6105 3.972057 33.097848 19.916324
2006-05-15 08:30:55 51°13.926 2°47.809 13.6073 3.976378 33.138668 20.017452
2006-05-15 08:30:59 51°13.923 2°47.812 13.6035 3.971741 33.099565 20.11858
2006-05-15 08:31:05 51°13.92 2°47.818 13.5956 3.971741 33.099565 20.11858
2006-05-15 08:31:08 51°13.918 2°47.82 13.5966 3.9768 33.149246 20.11858
2006-05-15 08:31:15 51°13.914 2°47.827 13.5995 3.978802 33.170528 20.084871
2006-05-15 08:31:19 51°13.912 2°47.83 13.6063 3.973638 33.123185 20.051161
2006-05-15 08:31:25 51°13.91 2°47.836 13.6102 3.971109 33.099009 20.084871
2006-05-15 08:31:30 51°13.908 2°47.841 13.6142 3.973217 33.119932 20.11858
2006-05-15 08:31:35 51°13.905 2°47.845 13.6136 3.973217 33.119932 20.11858
2006-05-15 08:31:40 51°13.904 2°47.85 13.6165 3.978275 33.168295 20.185999
2006-05-15 08:31:45 51°13.902 2°47.855 13.6171 3.977854 33.169042 20.152289
2006-05-15 08:31:50 51°13.9 2°47.86 13.6167 3.974376 33.138035 20.11858
2006-05-15 08:31:55 51°13.898 2°47.865 13.6211 3.978065 33.169669 19.950033
2006-05-15 08:31:59 51°13.897 2°47.868 13.6226 3.973322 33.122243 19.916324
2006-05-15 08:32:05 51°13.895 2°47.874 13.6239 3.973322 33.122243 19.916324
2006-05-15 08:32:09 51°13.893 2°47.878 13.624 3.967104 33.061124 19.916324
2006-05-15 08:32:15 51°13.891 2°47.884 13.6268 3.977538 33.156771 19.882614
2006-05-15 08:32:20 51°13.89 2°47.889 13.6288 3.975114 33.132906 19.882614
2006-05-15 08:32:25 51°13.889 2°47.894 13.6298 3.979118 33.168802 19.848905
2006-05-15 08:32:29 51°13.888 2°47.898 13.6301 3.977959 33.156026 19.848905
2006-05-15 08:32:35 51°13.887 2°47.904 13.6278 3.977959 33.156026 19.848905
2006-05-15 08:32:40 51°13.886 2°47.908 13.6306 3.977537 33.150109 19.848905
2006-05-15 08:32:45 51°13.885 2°47.913 13.6284 3.977537 33.148777 19.848905
2006-05-15 08:32:49 51°13.885 2°47.917 13.6229 3.973954 33.11348 19.815195
2006-05-15 08:32:54 51°13.884 2°47.923 13.6234 3.972584 33.100084 19.815195
2006-05-15 08:33:00 51°13.884 2°47.929 13.6271 3.972584 33.100084 19.815195
2006-05-15 08:33:05 51°13.884 2°47.934 13.6269 3.977221 33.141844 19.848905
2006-05-15 08:33:10 51°13.884 2°47.94 13.6289 3.965629 33.03281 19.848905
2006-05-15 08:33:15 51°13.884 2°47.945 13.6286 3.97427 33.113092 19.848905
2006-05-15 08:33:20 51°13.885 2°47.951 13.626 3.977537 33.144116 19.848905
2006-05-15 08:33:25 51°13.886 2°47.956 13.6251 3.965629 33.0348 19.916324
2006-05-15 08:33:29 51°13.886 2°47.96 13.6247 3.977327 33.143489 19.882614
2006-05-15 08:33:35 51°13.887 2°47.967 13.621 3.977327 33.143489 19.882614
2006-05-15 08:33:40 51°13.889 2°47.972 13.6204 3.970582 33.081479 19.848905
2006-05-15 08:33:45 51°13.89 2°47.977 13.6184 3.977221 33.141844 19.848905
2006-05-15 08:33:49 51°13.891 2°47.982 13.6193 3.981437 33.181023 19.848905
2006-05-15 08:33:55 51°13.893 2°47.988 13.6179 3.965839 33.036095 19.882614
2006-05-15 08:33:58 51°13.895 2°47.991 13.6167 3.981437 33.181023 19.882614
2006-05-15 08:34:05 51°13.897 2°47.999 13.614 3.981437 33.181023 19.882614
2006-05-15 08:34:09 51°13.898 2°48.003 13.6129 3.966999 33.048854 19.983742
2006-05-15 08:34:15 51°13.901 2°48.01 13.6114 3.973006 33.104666 19.983742
2006-05-15 08:34:19 51°13.902 2°48.014 13.6091 3.976589 33.139962 19.983742
2006-05-15 08:34:25 51°13.904 2°48.021 13.6021 3.976273 33.137689 20.051161
2006-05-15 08:34:30 51°13.906 2°48.027 13.6038 3.976273 33.137689 20.051161
2006-05-15 08:34:35 51°13.908 2°48.033 13.6003 3.972268 33.102466 20.084871
2006-05-15 08:34:39 51°13.91 2°48.037 13.6 3.978381 33.160611 20.11858
2006-05-15 08:34:45 51°13.912 2°48.044 13.5974 3.975851 33.1371 20.152289
2006-05-15 08:34:50 51°13.914 2°48.05 13.5985 3.967631 33.062035 20.320836
2006-05-15 08:34:55 51°13.916 2°48.056 13.5978 3.978697 33.166216 20.421965
2006-05-15 08:35:00 51°13.918 2°48.062 13.5955 3.968264 33.074556 20.455674
2006-05-15 08:35:05 51°13.92 2°48.068 13.5954 3.968264 33.074556 20.455674
2006-05-15 08:35:10 51°13.921 2°48.074 13.5934 3.981015 33.195777 20.523093
2006-05-15 08:35:15 51°13.923 2°48.08 13.5894 3.973638 33.128512 20.590512
2006-05-15 08:35:20 51°13.925 2°48.085 13.5867 3.979013 33.179823 20.590512
2006-05-15 08:35:25 51°13.927 2°48.091 13.5894 3.97954 33.186058 20.65793
2006-05-15 08:35:30 51°13.929 2°48.097 13.5912 3.976273 33.156342 20.69164
2006-05-15 08:35:35 51°13.931 2°48.103 13.5947 3.976273 33.156342 20.69164
2006-05-15 08:35:40 51°13.933 2°48.109 13.5929 3.982491 33.215508 20.725349
2006-05-15 08:35:45 51°13.935 2°48.115 13.5935 3.983229 33.223039 20.826477
2006-05-15 08:35:50 51°13.937 2°48.122 13.5926 3.98091 33.204809 20.860187
2006-05-15 08:35:55 51°13.939 2°48.127 13.5903 3.968791 33.093422 20.893896
2006-05-15 08:36:00 51°13.941 2°48.133 13.5946 3.975535 33.156147 20.860187
2006-05-15 08:36:05 51°13.943 2°48.139 13.5976 3.975535 33.156147 20.860187
2006-05-15 08:36:09 51°13.944 2°48.144 13.6036 3.979013 33.187162 20.826477
2006-05-15 08:36:15 51°13.946 2°48.151 13.6067 3.968264 33.085861 20.860187
2006-05-15 08:36:20 51°13.948 2°48.157 13.6096 3.982596 33.219828 20.927606
2006-05-15 08:36:25 51°13.95 2°48.163 13.6099 3.977432 33.171124 20.961315
2006-05-15 08:36:30 51°13.952 2°48.169 13.6112 3.977432 33.171124 20.961315
2006-05-15 08:36:35 51°13.954 2°48.175 13.6101 3.976062 33.159715 20.961315
2006-05-15 08:36:40 51°13.956 2°48.181 13.6074 3.979751 33.193357 20.995024
2006-05-15 08:36:44 51°13.957 2°48.186 13.6067 3.975852 33.153754 20.927606
2006-05-15 08:36:50 51°13.96 2°48.193 13.6073 3.973322 33.126904 20.927606
2006-05-15 08:36:55 51°13.962 2°48.199 13.609 3.971109 33.103 20.927606
2006-05-15 08:37:00 51°13.964 2°48.205 13.6117 3.964364 33.038318 20.927606
2006-05-15 08:37:05 51°13.966 2°48.21 13.6104 3.964364 33.038318 20.927606
2006-05-15 08:37:10 51°13.968 2°48.216 13.6154 3.964575 33.038948 20.961315
2006-05-15 08:37:15 51°13.97 2°48.222 13.617 3.98502 33.229017 20.995024
2006-05-15 08:37:20 51°13.972 2°48.228 13.619 3.976905 33.154224 21.062443
2006-05-15 08:37:25 51°13.974 2°48.233 13.6204 3.980383 33.187228 21.028734
2006-05-15 08:37:29 51°13.975 2°48.238 13.621 3.983018 33.211729 21.028734
2006-05-15 08:37:35 51°13.977 2°48.244 13.6201 3.983018 33.211729 21.028734
2006-05-15 08:37:39 51°13.979 2°48.249 13.618 3.982491 33.206161 21.062443
2006-05-15 08:37:45 51°13.981 2°48.256 13.6169 3.980172 33.183267 21.028734
2006-05-15 08:37:50 51°13.984 2°48.261 13.6179 3.985231 33.227638 21.028734
2006-05-15 08:37:55 51°13.986 2°48.267 13.6139 3.984177 33.215835 21.028734
2006-05-15 08:38:00 51°13.988 2°48.272 13.6138 3.984177 33.215835 21.028734
2006-05-15 08:38:04 51°13.989 2°48.277 13.6152 3.983123 33.203367 21.062443
2006-05-15 08:38:09 51°13.991 2°48.282 13.618 3.983334 33.204659 21.062443
2006-05-15 08:38:15 51°13.993 2°48.289 13.619 3.974903 33.126287 21.129862
2006-05-15 08:38:19 51°13.995 2°48.293 13.6168 3.983439 33.206306 21.163571
2006-05-15 08:38:25 51°13.997 2°48.3 13.6129 3.974481 33.124366 21.23099
2006-05-15 08:38:29 51°13.999 2°48.304 13.61 3.98365 33.211602 21.2647
2006-05-15 08:38:35 51°14.001 2°48.311 13.6134 3.98365 33.211602 21.2647
2006-05-15 08:38:40 51°14.003 2°48.316 13.6155 3.974376 33.125383 21.2647
2006-05-15 08:38:44 51°14.004 2°48.321 13.6115 3.981753 33.19263 21.2647
2006-05-15 08:38:50 51°14.007 2°48.327 13.6107 3.982702 33.200781 21.298409
2006-05-15 08:38:55 51°14.009 2°48.333 13.6051 3.984704 33.2194 21.399537
2006-05-15 08:39:00 51°14.011 2°48.338 13.6039 3.98502 33.223675 21.534375
2006-05-15 08:39:05 51°14.013 2°48.344 13.6023 3.98502 33.223675 21.534375
2006-05-15 08:39:08 51°14.014 2°48.347 13.6009 3.974692 33.129653 21.500665
2006-05-15 08:39:15 51°14.017 2°48.355 13.5991 3.978802 33.168528 21.500665
2006-05-15 08:39:19 51°14.018 2°48.36 13.5967 3.984704 33.223405 21.534375
2006-05-15 08:39:25 51°14.021 2°48.366 13.5961 3.982069 33.198905 21.635503
2006-05-15 08:39:29 51°14.022 2°48.371 13.5918 3.974165 33.128084 21.770341
2006-05-15 08:39:34 51°14.024 2°48.376 13.5904 3.974165 33.128084 21.770341
2006-05-15 08:39:40 51°14.026 2°48.383 13.5903 3.978486 33.170255 21.837759
2006-05-15 08:39:45 51°14.028 2°48.389 13.5893 3.983861 33.222242 21.905178
2006-05-15 08:39:50 51°14.03 2°48.395 13.5886 3.980067 33.189625 21.972597
2006-05-15 08:39:55 51°14.032 2°48.4 13.5865 3.981437 33.203702 22.040016
2006-05-15 08:39:58 51°14.033 2°48.404 13.5859 3.985758 33.245901 22.242272
2006-05-15 08:40:05 51°14.036 2°48.412 13.585 3.985758 33.245901 22.242272
2006-05-15 08:40:10 51°14.038 2°48.418 13.5858 3.984388 33.23516 22.242272
2006-05-15 08:40:13 51°14.039 2°48.421 13.5849 3.982807 33.221789 22.309691
2006-05-15 08:40:20 51°14.042 2°48.429 13.5865 3.977432 33.173125 22.37711
2006-05-15 08:40:25 51°14.044 2°48.435 13.5915 3.975219 33.153206 22.478238
2006-05-15 08:40:29 51°14.045 2°48.439 13.5898 3.976484 33.166303 22.478238
2006-05-15 08:40:35 51°14.048 2°48.446 13.5938 3.976484 33.166303 22.478238
2006-05-15 08:40:39 51°14.049 2°48.45 13.5969 3.98344 33.232349 22.511947
2006-05-15 08:40:45 51°14.052 2°48.456 13.5983 3.983123 33.231413 22.545657
2006-05-15 08:40:50 51°14.054 2°48.462 13.6 3.983229 33.231725 22.545657
2006-05-15 08:40:55 51°14.056 2°48.467 13.6017 3.978803 33.190541 22.545657
2006-05-15 08:40:59 51°14.058 2°48.471 13.6047 3.977959 33.181362 22.511947
2006-05-15 08:41:05 51°14.061 2°48.477 13.6096 3.977959 33.181362 22.511947
2006-05-15 08:41:10 51°14.063 2°48.483 13.6106 3.981121 33.209441 22.511947
2006-05-15 08:41:15 51°14.066 2°48.487 13.6156 3.972901 33.131643 22.478238
2006-05-15 08:41:19 51°14.068 2°48.491 13.6166 3.980383 33.198572 22.37711
2006-05-15 08:41:25 51°14.071 2°48.497 13.6163 3.976695 33.162262 22.3434
2006-05-15 08:41:30 51°14.073 2°48.502 13.6173 3.971531 33.112909 22.275982
2006-05-15 08:41:34 51°14.076 2°48.506 13.6179 3.971531 33.112909 22.275982
2006-05-15 08:41:39 51°14.078 2°48.511 13.6179 3.971109 33.105662 22.208563
2006-05-15 08:41:45 51°14.081 2°48.517 13.6175 3.97817 33.168649 22.141144
2006-05-15 08:41:49 51°14.083 2°48.521 13.6145 3.979435 33.177074 22.141144
2006-05-15 08:41:55 51°14.086 2°48.526 13.6214 3.973954 33.123461 22.107435
2006-05-15 08:42:00 51°14.089 2°48.531 13.6236 3.975746 33.138118 22.107435
2006-05-15 08:42:05 51°14.091 2°48.536 13.6262 3.975746 33.138118 22.107435
2006-05-15 08:42:10 51°14.094 2°48.541 13.625 3.973006 33.111983 22.107435
2006-05-15 08:42:15 51°14.097 2°48.545 13.6268 3.968053 33.065952 22.073725
2006-05-15 08:42:19 51°14.099 2°48.549 13.6299 3.972479 33.105755 22.073725
2006-05-15 08:42:25 51°14.102 2°48.555 13.6302 3.975008 33.129263 22.006306
2006-05-15 08:42:29 51°14.104 2°48.559 13.6337 3.968369 33.066896 21.938888
2006-05-15 08:42:35 51°14.107 2°48.564 13.6328 3.968369 33.066896 21.938888
2006-05-15 08:42:39 51°14.109 2°48.568 13.6307 3.973743 33.114848 21.905178
2006-05-15 08:42:45 51°14.112 2°48.574 13.6283 3.973849 33.113831 21.905178
2006-05-15 08:42:50 51°14.114 2°48.578 13.6277 3.965207 33.031548 21.837759
2006-05-15 08:42:55 51°14.117 2°48.583 13.6334 3.97701 33.139885 21.837759
2006-05-15 08:43:00 51°14.12 2°48.588 13.6355 3.973743 33.107531 21.770341
2006-05-15 08:43:05 51°14.122 2°48.592 13.633 3.973743 33.107531 21.770341
2006-05-15 08:43:09 51°14.124 2°48.596 13.6343 3.964153 33.018443 21.736631
2006-05-15 08:43:15 51°14.127 2°48.601 13.6365 3.967736 33.05106 21.702922
2006-05-15 08:43:19 51°14.129 2°48.605 13.6358 3.968052 33.053997 21.635503
2006-05-15 08:43:25 51°14.132 2°48.611 13.6373 3.973533 33.106237 21.601794
2006-05-15 08:43:30 51°14.135 2°48.615 13.6418 3.964575 33.021695 21.568084
2006-05-15 08:43:35 51°14.137 2°48.62 13.6419 3.964575 33.021695 21.568084
2006-05-15 08:43:39 51°14.139 2°48.623 13.638 3.970371 33.072878 21.568084
2006-05-15 08:43:45 51°14.142 2°48.629 13.6358 3.964048 33.014812 21.500665
2006-05-15 08:43:50 51°14.145 2°48.633 13.6359 3.958884 32.964874 21.433247
2006-05-15 08:43:55 51°14.147 2°48.638 13.6396 3.966472 33.035333 21.433247
2006-05-15 08:44:00 51°14.15 2°48.642 13.6377 3.961097 32.984097 21.365828
2006-05-15 08:44:05 51°14.153 2°48.647 13.6413 3.961097 32.984097 21.365828
2006-05-15 08:44:09 51°14.155 2°48.65 13.6392 3.964153 33.010487 21.365828
2006-05-15 08:44:15 51°14.158 2°48.656 13.6388 3.961518 32.985362 21.365828
2006-05-15 08:44:18 51°14.159 2°48.658 13.6342 3.957198 32.947235 21.365828
2006-05-15 08:44:25 51°14.163 2°48.665 13.6287 3.957725 32.952788 21.298409
2006-05-15 08:44:29 51°14.165 2°48.668 13.6239 3.958357 32.957996 21.298409
2006-05-15 08:44:34 51°14.167 2°48.673 13.6219 3.958357 32.957996 21.298409
2006-05-15 08:44:40 51°14.17 2°48.678 13.6255 3.960254 32.975608 21.2647
2006-05-15 08:44:45 51°14.173 2°48.683 13.6197 3.965628 33.023524 21.2647
2006-05-15 08:44:49 51°14.175 2°48.686 13.6269 3.966261 33.030059 21.2647
2006-05-15 08:44:54 51°14.177 2°48.69 13.6307 3.963415 33.005625 21.2647
2006-05-15 08:45:00 51°14.18 2°48.696 13.6287 3.963415 33.005625 21.2647
2006-05-15 08:45:05 51°14.183 2°48.7 13.6259 3.962572 33.00111 21.332118
2006-05-15 08:45:10 51°14.185 2°48.705 13.6266 3.958252 32.964961 21.365828
2006-05-15 08:45:15 51°14.188 2°48.709 13.6171 3.964153 33.021096 21.2647
2006-05-15 08:45:20 51°14.19 2°48.714 13.6151 3.964996 33.031581 21.2647
2006-05-15 08:45:25 51°14.193 2°48.718 13.6074 3.964469 33.025359 21.197281
2006-05-15 08:45:29 51°14.195 2°48.722 13.6075 3.962362 33.00313 21.163571
2006-05-15 08:45:35 51°14.198 2°48.727 13.6027 3.962362 33.00313 21.163571
2006-05-15 08:45:40 51°14.2 2°48.732 13.5981 3.9592 32.973107 21.197281
2006-05-15 08:45:45 51°14.203 2°48.736 13.5951 3.959832 32.980303 21.197281
2006-05-15 08:45:50 51°14.205 2°48.741 13.5908 3.959305 32.978722 21.23099
2006-05-15 08:45:55 51°14.207 2°48.745 13.5918 3.962256 33.010107 21.2647
2006-05-15 08:46:00 51°14.21 2°48.749 13.5947 3.960781 33.001043 21.23099
2006-05-15 08:46:05 51°14.212 2°48.754 13.5988 3.960781 33.001043 21.23099
2006-05-15 08:46:09 51°14.214 2°48.758 13.6028 3.958779 32.98443 21.2647
2006-05-15 08:46:15 51°14.217 2°48.763 13.6065 3.962573 33.024324 21.2647
2006-05-15 08:46:20 51°14.219 2°48.767 13.6094 3.962467 33.027328 21.298409
2006-05-15 08:46:25 51°14.221 2°48.772 13.6076 3.961835 33.023443 21.2647
2006-05-15 08:46:29 51°14.223 2°48.776 13.6086 3.958357 32.993111 21.2647
2006-05-15 08:46:35 51°14.226 2°48.781 13.6169 3.958357 32.993111 21.2647
2006-05-15 08:46:40 51°14.228 2°48.785 13.6224 3.95783 32.987551 21.197281
2006-05-15 08:46:45 51°14.231 2°48.79 13.6206 3.959622 33.002874 21.197281
2006-05-15 08:46:50 51°14.233 2°48.794 13.6195 3.95351 32.942765 21.197281
2006-05-15 08:46:55 51°14.236 2°48.799 13.6136 3.955723 32.959351 21.23099
2006-05-15 08:47:00 51°14.238 2°48.803 13.6085 3.951718 32.92149 21.23099
2006-05-15 08:47:05 51°14.241 2°48.808 13.6031 3.951718 32.92149 21.23099
2006-05-15 08:47:10 51°14.243 2°48.813 13.5979 3.954563 32.945933 21.163571
2006-05-15 08:47:15 51°14.245 2°48.817 13.5989 3.958041 32.974926 21.163571
2006-05-15 08:47:19 51°14.247 2°48.821 13.5982 3.956671 32.958889 21.163571
2006-05-15 08:47:25 51°14.25 2°48.826 13.5967 3.957725 32.968677 21.163571
2006-05-15 08:47:29 51°14.252 2°48.83 13.6001 3.952772 32.924 21.23099
2006-05-15 08:47:35 51°14.255 2°48.835 13.604 3.952772 32.924 21.23099
2006-05-15 08:47:39 51°14.256 2°48.839 13.6036 3.956566 32.963871 21.2647
2006-05-15 08:47:45 51°14.259 2°48.845 13.5961 3.956249 32.964246 21.2647
2006-05-15 08:47:50 51°14.262 2°48.849 13.5893 3.951823 32.925777 21.332118
2006-05-15 08:47:55 51°14.264 2°48.854 13.5818 3.953088 32.940173 21.332118
2006-05-15 08:48:00 51°14.266 2°48.858 13.5827 3.960149 33.007108 21.365828
2006-05-15 08:48:05 51°14.268 2°48.863 13.5812 3.960149 33.007108 21.365828
2006-05-15 08:48:09 51°14.27 2°48.867 13.5824 3.955828 32.96563 21.332118
2006-05-15 08:48:14 51°14.272 2°48.871 13.5758 3.954353 32.950597 21.298409
2006-05-15 08:48:19 51°14.275 2°48.876 13.5737 3.952245 32.93234 21.399537
2006-05-15 08:48:25 51°14.277 2°48.882 13.568 3.956777 32.978421 21.433247
2006-05-15 08:48:29 51°14.279 2°48.885 13.5719 3.956777 32.978421 21.433247
2006-05-15 08:48:35 51°14.282 2°48.891 13.5698 3.957304 32.988623 21.433247
2006-05-15 08:48:40 51°14.284 2°48.896 13.5705 3.952667 32.949504 21.365828
2006-05-15 08:48:45 51°14.286 2°48.9 13.5777 3.956987 32.990328 21.399537
2006-05-15 08:48:49 51°14.288 2°48.904 13.5744 3.952983 32.953767 21.433247
2006-05-15 08:48:55 51°14.291 2°48.91 13.5747 3.954037 32.967541 21.500665
2006-05-15 08:49:00 51°14.293 2°48.915 13.574 3.954037 32.967541 21.500665
2006-05-15 08:49:05 51°14.295 2°48.919 13.575 3.958885 33.015267 21.466956
2006-05-15 08:49:09 51°14.297 2°48.924 13.5768 3.959411 33.020831 21.500665
2006-05-15 08:49:15 51°14.299 2°48.929 13.5726 3.956777 32.99766 21.466956
2006-05-15 08:49:19 51°14.301 2°48.933 13.5642 3.960255 33.028671 21.466956
2006-05-15 08:49:25 51°14.303 2°48.939 13.5615 3.955301 32.981288 21.500665
2006-05-15 08:49:30 51°14.306 2°48.944 13.5616 3.962152 33.045648 21.500665
2006-05-15 08:49:34 51°14.307 2°48.948 13.5608 3.962152 33.045648 21.500665
2006-05-15 08:49:40 51°14.309 2°48.954 13.5548 3.962362 33.047608 21.500665
2006-05-15 08:49:45 51°14.312 2°48.959 13.5496 3.958674 33.011979 21.500665
2006-05-15 08:49:50 51°14.313 2°48.964 13.5559 3.958463 33.011347 21.568084
2006-05-15 08:49:55 51°14.315 2°48.969 13.5615 3.960465 33.034619 21.568084
2006-05-15 08:50:00 51°14.317 2°48.974 13.5635 3.962889 33.059824 21.601794
2006-05-15 08:50:05 51°14.319 2°48.979 13.5643 3.962889 33.059824 21.601794
2006-05-15 08:50:09 51°14.321 2°48.983 13.5686 3.962257 33.055273 21.601794
2006-05-15 08:50:15 51°14.323 2°48.989 13.5708 3.961519 33.04974 21.601794
2006-05-15 08:50:20 51°14.325 2°48.994 13.5717 3.9631 33.069771 21.669212
2006-05-15 08:50:25 51°14.327 2°48.999 13.5795 3.959306 33.035137 21.601794
2006-05-15 08:50:29 51°14.329 2°49.003 13.5942 3.959306 33.035137 21.601794
2006-05-15 08:50:35 51°14.331 2°49.009 13.5915 3.962468 33.062556 21.635503
2006-05-15 08:50:39 51°14.332 2°49.013 13.5819 3.960044 33.037345 21.568084
2006-05-15 08:50:45 51°14.335 2°49.019 13.5821 3.959306 33.027824 21.568084
2006-05-15 08:50:48 51°14.336 2°49.022 13.589 3.960992 33.040849 21.534375
2006-05-15 08:50:55 51°14.339 2°49.029 13.5919 3.958779 33.018272 21.534375
2006-05-15 08:50:59 51°14.34 2°49.033 13.5861 3.958885 33.014603 21.466956
2006-05-15 08:51:05 51°14.343 2°49.039 13.5784 3.958885 33.014603 21.466956
2006-05-15 08:51:10 51°14.345 2°49.044 13.5775 3.959728 33.016465 21.433247
2006-05-15 08:51:15 51°14.346 2°49.049 13.585 3.956566 32.985083 21.466956
2006-05-15 08:51:18 51°14.348 2°49.052 13.5953 3.956355 32.984451 21.466956
2006-05-15 08:51:25 51°14.35 2°49.059 13.601 3.957304 32.99194 21.433247
2006-05-15 08:51:30 51°14.352 2°49.064 13.6072 3.955512 32.973298 21.500665
2006-05-15 08:51:35 51°14.354 2°49.069 13.6022 3.955512 32.973298 21.500665
2006-05-15 08:51:40 51°14.356 2°49.074 13.6017 3.955828 32.977563 21.534375
2006-05-15 08:51:45 51°14.358 2°49.079 13.6019 3.960044 33.019404 21.500665
2006-05-15 08:51:49 51°14.36 2°49.082 13.6033 3.959411 33.01419 21.466956
2006-05-15 08:51:55 51°14.362 2°49.089 13.6058 3.956144 32.979838 21.399537
2006-05-15 08:52:00 51°14.364 2°49.093 13.6105 3.955512 32.967994 21.332118
2006-05-15 08:52:05 51°14.366 2°49.098 13.6151 3.955512 32.967994 21.332118
2006-05-15 08:52:09 51°14.368 2°49.102 13.6324 3.956777 32.975106 21.365828
2006-05-15 08:52:15 51°14.371 2°49.107 13.6453 3.955196 32.959755 21.365828
2006-05-15 08:52:20 51°14.373 2°49.112 13.655 3.95646 32.97018 21.365828
2006-05-15 08:52:25 51°14.376 2°49.117 13.6553 3.954458 32.950914 21.332118
2006-05-15 08:52:30 51°14.378 2°49.121 13.6534 3.954458 32.950914 21.332118
2006-05-15 08:52:35 51°14.38 2°49.125 13.6564 3.952561 32.93263 21.332118
2006-05-15 08:52:40 51°14.383 2°49.13 13.6623 3.95509 32.952152 21.298409
2006-05-15 08:52:44 51°14.385 2°49.133 13.6649 3.951612 32.913235 21.197281
2006-05-15 08:52:50 51°14.388 2°49.138 13.6597 3.949926 32.887667 21.096153
2006-05-15 08:52:55 51°14.391 2°49.142 13.6562 3.950031 32.88006 21.028734
2006-05-15 08:53:00 51°14.394 2°49.146 13.6543 3.94961 32.870209 21.062443
2006-05-15 08:53:05 51°14.396 2°49.15 13.6491 3.94961 32.870209 21.062443
2006-05-15 08:53:09 51°14.399 2°49.153 13.6533 3.950347 32.873094 20.995024
2006-05-15 08:53:15 51°14.402 2°49.158 13.6537 3.945921 32.82874 20.995024
2006-05-15 08:53:20 51°14.405 2°49.162 13.6524 3.949293 32.856722 20.961315
2006-05-15 08:53:25 51°14.408 2°49.165 13.6543 3.948345 32.846607 20.927606
2006-05-15 08:53:30 51°14.411 2°49.169 13.6526 3.948029 32.844993 20.995024
2006-05-15 08:53:35 51°14.414 2°49.173 13.648 3.948029 32.844993 20.995024
2006-05-15 08:53:40 51°14.417 2°49.177 13.6467 3.94845 32.850881 20.995024
2006-05-15 08:53:45 51°14.42 2°49.181 13.6469 3.944235 32.813102 20.961315
2006-05-15 08:53:50 51°14.423 2°49.184 13.6421 3.947186 32.841128 20.927606
2006-05-15 08:53:55 51°14.426 2°49.188 13.6285 3.946659 32.835582 20.927606
2006-05-15 08:54:00 51°14.429 2°49.192 13.6204 3.942865 32.801055 20.927606
2006-05-15 08:54:05 51°14.432 2°49.195 13.6179 3.942865 32.801055 20.927606
2006-05-15 08:54:10 51°14.434 2°49.199 13.6154 3.942233 32.795191 20.927606
2006-05-15 08:54:15 51°14.437 2°49.203 13.6226 3.942022 32.795869 20.961315
2006-05-15 08:54:20 51°14.44 2°49.207 13.6325 3.939704 32.775026 20.927606
2006-05-15 08:54:25 51°14.443 2°49.211 13.6356 3.943814 32.816437 21.028734
2006-05-15 08:54:30 51°14.446 2°49.215 13.6351 3.940125 32.78749 21.062443
2006-05-15 08:54:35 51°14.449 2°49.218 13.6388 3.940125 32.78749 21.062443
2006-05-15 08:54:39 51°14.451 2°49.222 13.6437 3.940758 32.8006 21.062443
2006-05-15 08:54:45 51°14.454 2°49.226 13.6462 3.944235 32.838805 21.062443
2006-05-15 08:54:49 51°14.456 2°49.229 13.6444 3.939072 32.792199 20.961315
2006-05-15 08:54:55 51°14.46 2°49.234 13.6398 3.939598 32.793137 20.927606
2006-05-15 08:55:00 51°14.463 2°49.237 13.637 3.939598 32.789186 20.927606
2006-05-15 08:55:05 51°14.466 2°49.241 13.6308 3.939598 32.789186 20.927606
2006-05-15 08:55:09 51°14.468 2°49.244 13.6212 3.939809 32.789166 20.893896
2006-05-15 08:55:14 51°14.471 2°49.248 13.6115 3.937596 32.765346 20.860187
2006-05-15 08:55:20 51°14.474 2°49.253 13.5983 3.935699 32.743807 20.860187